<?xml version="1.0" encoding="UTF-8" standalone="no" ?>
<gpx xmlns="http://www.topografix.com/GPX/1/1" xmlns:xsi="http://www.w3.org/2001/XMLSchema-instance" xsi:schemaLocation="http://www.topografix.com/GPX/1/1 http://www.topografix.com/GPX/1/1/gpx.xsd" version="1.1" creator="VisuGPX - https://www.visugpx.com">
  <metadata>
    <name>cima solo 28/11</name>
    <desc><![CDATA[Petite sortie entre les goutes avec le soleil qui apparait au retour à la voiture...]]></desc>
  </metadata>
  <trk>
    <name><![CDATA[(null)]]></name>
    <desc><![CDATA[(null)]]></desc>
    <trkseg>
      <trkpt lat="43.79324" lon="7.24486">
        <ele>648</ele>
        <time>2010-11-28T12:48:29Z</time>
      </trkpt>
      <trkpt lat="43.79324" lon="7.24486">
        <ele>648</ele>
        <time>2010-11-28T12:48:29Z</time>
      </trkpt>
      <trkpt lat="43.79324" lon="7.24486">
        <ele>648</ele>
        <time>2010-11-28T12:48:30Z</time>
      </trkpt>
      <trkpt lat="43.79324" lon="7.24486">
        <ele>648</ele>
        <time>2010-11-28T12:48:31Z</time>
      </trkpt>
      <trkpt lat="43.79324" lon="7.24486">
        <ele>648</ele>
        <time>2010-11-28T12:48:33Z</time>
      </trkpt>
      <trkpt lat="43.79333" lon="7.24493">
        <ele>648</ele>
        <time>2010-11-28T12:48:45Z</time>
      </trkpt>
      <trkpt lat="43.7934" lon="7.24499">
        <ele>646</ele>
        <time>2010-11-28T12:49:43Z</time>
      </trkpt>
      <trkpt lat="43.79347" lon="7.2449">
        <ele>646</ele>
        <time>2010-11-28T12:50:17Z</time>
      </trkpt>
      <trkpt lat="43.79355" lon="7.24485">
        <ele>646</ele>
        <time>2010-11-28T12:50:22Z</time>
      </trkpt>
      <trkpt lat="43.79365" lon="7.24479">
        <ele>647</ele>
        <time>2010-11-28T12:50:27Z</time>
      </trkpt>
      <trkpt lat="43.79374" lon="7.24473">
        <ele>648</ele>
        <time>2010-11-28T12:50:32Z</time>
      </trkpt>
      <trkpt lat="43.79382" lon="7.24468">
        <ele>649</ele>
        <time>2010-11-28T12:50:37Z</time>
      </trkpt>
      <trkpt lat="43.79392" lon="7.24463">
        <ele>649</ele>
        <time>2010-11-28T12:50:41Z</time>
      </trkpt>
      <trkpt lat="43.79402" lon="7.24462">
        <ele>649</ele>
        <time>2010-11-28T12:50:46Z</time>
      </trkpt>
      <trkpt lat="43.79412" lon="7.24461">
        <ele>648</ele>
        <time>2010-11-28T12:50:50Z</time>
      </trkpt>
      <trkpt lat="43.79422" lon="7.24458">
        <ele>645</ele>
        <time>2010-11-28T12:50:55Z</time>
      </trkpt>
      <trkpt lat="43.79429" lon="7.24455">
        <ele>642</ele>
        <time>2010-11-28T12:50:58Z</time>
      </trkpt>
      <trkpt lat="43.79437" lon="7.24447">
        <ele>641</ele>
        <time>2010-11-28T12:51:02Z</time>
      </trkpt>
      <trkpt lat="43.7944" lon="7.24438">
        <ele>643</ele>
        <time>2010-11-28T12:51:05Z</time>
      </trkpt>
      <trkpt lat="43.79444" lon="7.24426">
        <ele>647</ele>
        <time>2010-11-28T12:51:08Z</time>
      </trkpt>
      <trkpt lat="43.79447" lon="7.24413">
        <ele>651</ele>
        <time>2010-11-28T12:51:11Z</time>
      </trkpt>
      <trkpt lat="43.79451" lon="7.244">
        <ele>656</ele>
        <time>2010-11-28T12:51:15Z</time>
      </trkpt>
      <trkpt lat="43.79455" lon="7.24388">
        <ele>660</ele>
        <time>2010-11-28T12:51:19Z</time>
      </trkpt>
      <trkpt lat="43.79461" lon="7.24376">
        <ele>663</ele>
        <time>2010-11-28T12:51:23Z</time>
      </trkpt>
      <trkpt lat="43.79463" lon="7.24373">
        <ele>664</ele>
        <time>2010-11-28T12:51:24Z</time>
      </trkpt>
      <trkpt lat="43.79469" lon="7.24363">
        <ele>666</ele>
        <time>2010-11-28T12:51:29Z</time>
      </trkpt>
      <trkpt lat="43.79476" lon="7.24353">
        <ele>668</ele>
        <time>2010-11-28T12:51:33Z</time>
      </trkpt>
      <trkpt lat="43.79483" lon="7.24343">
        <ele>671</ele>
        <time>2010-11-28T12:51:38Z</time>
      </trkpt>
      <trkpt lat="43.79489" lon="7.24333">
        <ele>673</ele>
        <time>2010-11-28T12:51:42Z</time>
      </trkpt>
      <trkpt lat="43.79493" lon="7.24328">
        <ele>674</ele>
        <time>2010-11-28T12:51:44Z</time>
      </trkpt>
      <trkpt lat="43.795" lon="7.24318">
        <ele>676</ele>
        <time>2010-11-28T12:51:49Z</time>
      </trkpt>
      <trkpt lat="43.79506" lon="7.24309">
        <ele>678</ele>
        <time>2010-11-28T12:51:53Z</time>
      </trkpt>
      <trkpt lat="43.79513" lon="7.243">
        <ele>679</ele>
        <time>2010-11-28T12:51:58Z</time>
      </trkpt>
      <trkpt lat="43.7952" lon="7.24292">
        <ele>682</ele>
        <time>2010-11-28T12:52:02Z</time>
      </trkpt>
      <trkpt lat="43.79525" lon="7.24282">
        <ele>683</ele>
        <time>2010-11-28T12:52:07Z</time>
      </trkpt>
      <trkpt lat="43.79527" lon="7.24279">
        <ele>684</ele>
        <time>2010-11-28T12:52:08Z</time>
      </trkpt>
      <trkpt lat="43.79533" lon="7.24269">
        <ele>685</ele>
        <time>2010-11-28T12:52:12Z</time>
      </trkpt>
      <trkpt lat="43.79535" lon="7.24265">
        <ele>685</ele>
        <time>2010-11-28T12:52:14Z</time>
      </trkpt>
      <trkpt lat="43.79541" lon="7.24255">
        <ele>686</ele>
        <time>2010-11-28T12:52:19Z</time>
      </trkpt>
      <trkpt lat="43.79547" lon="7.24245">
        <ele>687</ele>
        <time>2010-11-28T12:52:24Z</time>
      </trkpt>
      <trkpt lat="43.79552" lon="7.24233">
        <ele>687</ele>
        <time>2010-11-28T12:52:29Z</time>
      </trkpt>
      <trkpt lat="43.79553" lon="7.24231">
        <ele>687</ele>
        <time>2010-11-28T12:52:30Z</time>
      </trkpt>
      <trkpt lat="43.79557" lon="7.24217">
        <ele>688</ele>
        <time>2010-11-28T12:52:35Z</time>
      </trkpt>
      <trkpt lat="43.7956" lon="7.24205">
        <ele>688</ele>
        <time>2010-11-28T12:52:39Z</time>
      </trkpt>
      <trkpt lat="43.79563" lon="7.24193">
        <ele>690</ele>
        <time>2010-11-28T12:52:44Z</time>
      </trkpt>
      <trkpt lat="43.79568" lon="7.24181">
        <ele>690</ele>
        <time>2010-11-28T12:52:48Z</time>
      </trkpt>
      <trkpt lat="43.79573" lon="7.2417">
        <ele>691</ele>
        <time>2010-11-28T12:52:52Z</time>
      </trkpt>
      <trkpt lat="43.79578" lon="7.24158">
        <ele>691</ele>
        <time>2010-11-28T12:52:58Z</time>
      </trkpt>
      <trkpt lat="43.79581" lon="7.24156">
        <ele>691</ele>
        <time>2010-11-28T12:53:00Z</time>
      </trkpt>
      <trkpt lat="43.79586" lon="7.24166">
        <ele>693</ele>
        <time>2010-11-28T12:53:08Z</time>
      </trkpt>
      <trkpt lat="43.79583" lon="7.24178">
        <ele>693</ele>
        <time>2010-11-28T12:53:13Z</time>
      </trkpt>
      <trkpt lat="43.7958" lon="7.24191">
        <ele>693</ele>
        <time>2010-11-28T12:53:19Z</time>
      </trkpt>
      <trkpt lat="43.79576" lon="7.24204">
        <ele>695</ele>
        <time>2010-11-28T12:53:25Z</time>
      </trkpt>
      <trkpt lat="43.79574" lon="7.24217">
        <ele>696</ele>
        <time>2010-11-28T12:53:30Z</time>
      </trkpt>
      <trkpt lat="43.79572" lon="7.24231">
        <ele>697</ele>
        <time>2010-11-28T12:53:36Z</time>
      </trkpt>
      <trkpt lat="43.79571" lon="7.24233">
        <ele>697</ele>
        <time>2010-11-28T12:53:36Z</time>
      </trkpt>
      <trkpt lat="43.79569" lon="7.24246">
        <ele>698</ele>
        <time>2010-11-28T12:53:42Z</time>
      </trkpt>
      <trkpt lat="43.79567" lon="7.2426">
        <ele>700</ele>
        <time>2010-11-28T12:53:48Z</time>
      </trkpt>
      <trkpt lat="43.79564" lon="7.24273">
        <ele>700</ele>
        <time>2010-11-28T12:53:53Z</time>
      </trkpt>
      <trkpt lat="43.79561" lon="7.24285">
        <ele>700</ele>
        <time>2010-11-28T12:53:58Z</time>
      </trkpt>
      <trkpt lat="43.79556" lon="7.24297">
        <ele>701</ele>
        <time>2010-11-28T12:54:03Z</time>
      </trkpt>
      <trkpt lat="43.79553" lon="7.24304">
        <ele>701</ele>
        <time>2010-11-28T12:54:06Z</time>
      </trkpt>
      <trkpt lat="43.79547" lon="7.24315">
        <ele>702</ele>
        <time>2010-11-28T12:54:10Z</time>
      </trkpt>
      <trkpt lat="43.79542" lon="7.24326">
        <ele>703</ele>
        <time>2010-11-28T12:54:16Z</time>
      </trkpt>
      <trkpt lat="43.79536" lon="7.24337">
        <ele>704</ele>
        <time>2010-11-28T12:54:20Z</time>
      </trkpt>
      <trkpt lat="43.7953" lon="7.24348">
        <ele>705</ele>
        <time>2010-11-28T12:54:25Z</time>
      </trkpt>
      <trkpt lat="43.79526" lon="7.24356">
        <ele>705</ele>
        <time>2010-11-28T12:54:29Z</time>
      </trkpt>
      <trkpt lat="43.79519" lon="7.24367">
        <ele>706</ele>
        <time>2010-11-28T12:54:34Z</time>
      </trkpt>
      <trkpt lat="43.79513" lon="7.24377">
        <ele>707</ele>
        <time>2010-11-28T12:54:40Z</time>
      </trkpt>
      <trkpt lat="43.79508" lon="7.24386">
        <ele>707</ele>
        <time>2010-11-28T12:54:44Z</time>
      </trkpt>
      <trkpt lat="43.79502" lon="7.24396">
        <ele>708</ele>
        <time>2010-11-28T12:54:49Z</time>
      </trkpt>
      <trkpt lat="43.79496" lon="7.24406">
        <ele>709</ele>
        <time>2010-11-28T12:54:55Z</time>
      </trkpt>
      <trkpt lat="43.79489" lon="7.24415">
        <ele>709</ele>
        <time>2010-11-28T12:55:00Z</time>
      </trkpt>
      <trkpt lat="43.79483" lon="7.24425">
        <ele>710</ele>
        <time>2010-11-28T12:55:05Z</time>
      </trkpt>
      <trkpt lat="43.79476" lon="7.24435">
        <ele>711</ele>
        <time>2010-11-28T12:55:10Z</time>
      </trkpt>
      <trkpt lat="43.79469" lon="7.24445">
        <ele>711</ele>
        <time>2010-11-28T12:55:15Z</time>
      </trkpt>
      <trkpt lat="43.79467" lon="7.2445">
        <ele>712</ele>
        <time>2010-11-28T12:55:18Z</time>
      </trkpt>
      <trkpt lat="43.7946" lon="7.24458">
        <ele>713</ele>
        <time>2010-11-28T12:55:22Z</time>
      </trkpt>
      <trkpt lat="43.79452" lon="7.24466">
        <ele>714</ele>
        <time>2010-11-28T12:55:27Z</time>
      </trkpt>
      <trkpt lat="43.79444" lon="7.24475">
        <ele>714</ele>
        <time>2010-11-28T12:55:31Z</time>
      </trkpt>
      <trkpt lat="43.79438" lon="7.24482">
        <ele>714</ele>
        <time>2010-11-28T12:55:35Z</time>
      </trkpt>
      <trkpt lat="43.79431" lon="7.2449">
        <ele>715</ele>
        <time>2010-11-28T12:55:39Z</time>
      </trkpt>
      <trkpt lat="43.79424" lon="7.24498">
        <ele>716</ele>
        <time>2010-11-28T12:55:44Z</time>
      </trkpt>
      <trkpt lat="43.79417" lon="7.24507">
        <ele>716</ele>
        <time>2010-11-28T12:55:48Z</time>
      </trkpt>
      <trkpt lat="43.7941" lon="7.24517">
        <ele>717</ele>
        <time>2010-11-28T12:55:54Z</time>
      </trkpt>
      <trkpt lat="43.79403" lon="7.24527">
        <ele>718</ele>
        <time>2010-11-28T12:55:59Z</time>
      </trkpt>
      <trkpt lat="43.79396" lon="7.24537">
        <ele>718</ele>
        <time>2010-11-28T12:56:04Z</time>
      </trkpt>
      <trkpt lat="43.7939" lon="7.24548">
        <ele>720</ele>
        <time>2010-11-28T12:56:09Z</time>
      </trkpt>
      <trkpt lat="43.79383" lon="7.24558">
        <ele>721</ele>
        <time>2010-11-28T12:56:15Z</time>
      </trkpt>
      <trkpt lat="43.79378" lon="7.24566">
        <ele>721</ele>
        <time>2010-11-28T12:56:18Z</time>
      </trkpt>
      <trkpt lat="43.79372" lon="7.24577">
        <ele>722</ele>
        <time>2010-11-28T12:56:24Z</time>
      </trkpt>
      <trkpt lat="43.79369" lon="7.24585">
        <ele>723</ele>
        <time>2010-11-28T12:56:28Z</time>
      </trkpt>
      <trkpt lat="43.79364" lon="7.24596">
        <ele>723</ele>
        <time>2010-11-28T12:56:33Z</time>
      </trkpt>
      <trkpt lat="43.7936" lon="7.24609">
        <ele>723</ele>
        <time>2010-11-28T12:56:39Z</time>
      </trkpt>
      <trkpt lat="43.79356" lon="7.24622">
        <ele>723</ele>
        <time>2010-11-28T12:56:45Z</time>
      </trkpt>
      <trkpt lat="43.79352" lon="7.24633">
        <ele>724</ele>
        <time>2010-11-28T12:56:50Z</time>
      </trkpt>
      <trkpt lat="43.79347" lon="7.24645">
        <ele>725</ele>
        <time>2010-11-28T12:56:55Z</time>
      </trkpt>
      <trkpt lat="43.79343" lon="7.24658">
        <ele>726</ele>
        <time>2010-11-28T12:57:01Z</time>
      </trkpt>
      <trkpt lat="43.79339" lon="7.2467">
        <ele>727</ele>
        <time>2010-11-28T12:57:06Z</time>
      </trkpt>
      <trkpt lat="43.79336" lon="7.24682">
        <ele>728</ele>
        <time>2010-11-28T12:57:10Z</time>
      </trkpt>
      <trkpt lat="43.79333" lon="7.24695">
        <ele>728</ele>
        <time>2010-11-28T12:57:16Z</time>
      </trkpt>
      <trkpt lat="43.7933" lon="7.24709">
        <ele>729</ele>
        <time>2010-11-28T12:57:21Z</time>
      </trkpt>
      <trkpt lat="43.79328" lon="7.24721">
        <ele>730</ele>
        <time>2010-11-28T12:57:26Z</time>
      </trkpt>
      <trkpt lat="43.79327" lon="7.24727">
        <ele>730</ele>
        <time>2010-11-28T12:57:28Z</time>
      </trkpt>
      <trkpt lat="43.79325" lon="7.2474">
        <ele>731</ele>
        <time>2010-11-28T12:57:32Z</time>
      </trkpt>
      <trkpt lat="43.79325" lon="7.24753">
        <ele>732</ele>
        <time>2010-11-28T12:57:37Z</time>
      </trkpt>
      <trkpt lat="43.79325" lon="7.24755">
        <ele>732</ele>
        <time>2010-11-28T12:57:38Z</time>
      </trkpt>
      <trkpt lat="43.79326" lon="7.24768">
        <ele>732</ele>
        <time>2010-11-28T12:57:42Z</time>
      </trkpt>
      <trkpt lat="43.79329" lon="7.24782">
        <ele>733</ele>
        <time>2010-11-28T12:57:48Z</time>
      </trkpt>
      <trkpt lat="43.79332" lon="7.24794">
        <ele>733</ele>
        <time>2010-11-28T12:57:52Z</time>
      </trkpt>
      <trkpt lat="43.79337" lon="7.24809">
        <ele>734</ele>
        <time>2010-11-28T12:57:55Z</time>
      </trkpt>
      <trkpt lat="43.79339" lon="7.24812">
        <ele>734</ele>
        <time>2010-11-28T12:57:56Z</time>
      </trkpt>
      <trkpt lat="43.79346" lon="7.24822">
        <ele>734</ele>
        <time>2010-11-28T12:57:58Z</time>
      </trkpt>
      <trkpt lat="43.79356" lon="7.2483">
        <ele>734</ele>
        <time>2010-11-28T12:58:00Z</time>
      </trkpt>
      <trkpt lat="43.79367" lon="7.24835">
        <ele>734</ele>
        <time>2010-11-28T12:58:03Z</time>
      </trkpt>
      <trkpt lat="43.79377" lon="7.24837">
        <ele>734</ele>
        <time>2010-11-28T12:58:07Z</time>
      </trkpt>
      <trkpt lat="43.79389" lon="7.24841">
        <ele>734</ele>
        <time>2010-11-28T12:58:10Z</time>
      </trkpt>
      <trkpt lat="43.794" lon="7.24845">
        <ele>734</ele>
        <time>2010-11-28T12:58:12Z</time>
      </trkpt>
      <trkpt lat="43.79411" lon="7.2485">
        <ele>734</ele>
        <time>2010-11-28T12:58:14Z</time>
      </trkpt>
      <trkpt lat="43.79423" lon="7.24857">
        <ele>734</ele>
        <time>2010-11-28T12:58:16Z</time>
      </trkpt>
      <trkpt lat="43.79435" lon="7.24864">
        <ele>734</ele>
        <time>2010-11-28T12:58:19Z</time>
      </trkpt>
      <trkpt lat="43.79445" lon="7.2487">
        <ele>734</ele>
        <time>2010-11-28T12:58:21Z</time>
      </trkpt>
      <trkpt lat="43.79454" lon="7.24874">
        <ele>735</ele>
        <time>2010-11-28T12:58:23Z</time>
      </trkpt>
      <trkpt lat="43.79463" lon="7.24879">
        <ele>735</ele>
        <time>2010-11-28T12:58:26Z</time>
      </trkpt>
      <trkpt lat="43.79472" lon="7.24883">
        <ele>735</ele>
        <time>2010-11-28T12:58:30Z</time>
      </trkpt>
      <trkpt lat="43.79481" lon="7.24887">
        <ele>735</ele>
        <time>2010-11-28T12:58:33Z</time>
      </trkpt>
      <trkpt lat="43.7949" lon="7.2489">
        <ele>735</ele>
        <time>2010-11-28T12:58:36Z</time>
      </trkpt>
      <trkpt lat="43.79499" lon="7.24894">
        <ele>735</ele>
        <time>2010-11-28T12:58:39Z</time>
      </trkpt>
      <trkpt lat="43.7951" lon="7.24897">
        <ele>736</ele>
        <time>2010-11-28T12:58:43Z</time>
      </trkpt>
      <trkpt lat="43.79521" lon="7.24898">
        <ele>736</ele>
        <time>2010-11-28T12:58:47Z</time>
      </trkpt>
      <trkpt lat="43.7953" lon="7.24899">
        <ele>736</ele>
        <time>2010-11-28T12:58:50Z</time>
      </trkpt>
      <trkpt lat="43.79539" lon="7.249">
        <ele>736</ele>
        <time>2010-11-28T12:58:54Z</time>
      </trkpt>
      <trkpt lat="43.79549" lon="7.24902">
        <ele>737</ele>
        <time>2010-11-28T12:58:58Z</time>
      </trkpt>
      <trkpt lat="43.79552" lon="7.24902">
        <ele>736</ele>
        <time>2010-11-28T12:59:00Z</time>
      </trkpt>
      <trkpt lat="43.79562" lon="7.24902">
        <ele>737</ele>
        <time>2010-11-28T12:59:04Z</time>
      </trkpt>
      <trkpt lat="43.79571" lon="7.24902">
        <ele>737</ele>
        <time>2010-11-28T12:59:07Z</time>
      </trkpt>
      <trkpt lat="43.79582" lon="7.24902">
        <ele>737</ele>
        <time>2010-11-28T12:59:12Z</time>
      </trkpt>
      <trkpt lat="43.79591" lon="7.24902">
        <ele>737</ele>
        <time>2010-11-28T12:59:16Z</time>
      </trkpt>
      <trkpt lat="43.79596" lon="7.24902">
        <ele>737</ele>
        <time>2010-11-28T12:59:19Z</time>
      </trkpt>
      <trkpt lat="43.79605" lon="7.24902">
        <ele>738</ele>
        <time>2010-11-28T12:59:23Z</time>
      </trkpt>
      <trkpt lat="43.79614" lon="7.24901">
        <ele>738</ele>
        <time>2010-11-28T12:59:28Z</time>
      </trkpt>
      <trkpt lat="43.79619" lon="7.24901">
        <ele>739</ele>
        <time>2010-11-28T12:59:30Z</time>
      </trkpt>
      <trkpt lat="43.79629" lon="7.24899">
        <ele>739</ele>
        <time>2010-11-28T12:59:36Z</time>
      </trkpt>
      <trkpt lat="43.79638" lon="7.24897">
        <ele>740</ele>
        <time>2010-11-28T12:59:41Z</time>
      </trkpt>
      <trkpt lat="43.79646" lon="7.24891">
        <ele>740</ele>
        <time>2010-11-28T12:59:46Z</time>
      </trkpt>
      <trkpt lat="43.79654" lon="7.24883">
        <ele>741</ele>
        <time>2010-11-28T12:59:51Z</time>
      </trkpt>
      <trkpt lat="43.79655" lon="7.24882">
        <ele>741</ele>
        <time>2010-11-28T12:59:52Z</time>
      </trkpt>
      <trkpt lat="43.79663" lon="7.24874">
        <ele>741</ele>
        <time>2010-11-28T12:59:57Z</time>
      </trkpt>
      <trkpt lat="43.7967" lon="7.24865">
        <ele>741</ele>
        <time>2010-11-28T13:00:03Z</time>
      </trkpt>
      <trkpt lat="43.79677" lon="7.24857">
        <ele>742</ele>
        <time>2010-11-28T13:00:09Z</time>
      </trkpt>
      <trkpt lat="43.79684" lon="7.24849">
        <ele>744</ele>
        <time>2010-11-28T13:00:15Z</time>
      </trkpt>
      <trkpt lat="43.79691" lon="7.2484">
        <ele>744</ele>
        <time>2010-11-28T13:00:21Z</time>
      </trkpt>
      <trkpt lat="43.79696" lon="7.24835">
        <ele>744</ele>
        <time>2010-11-28T13:00:24Z</time>
      </trkpt>
      <trkpt lat="43.79704" lon="7.24826">
        <ele>745</ele>
        <time>2010-11-28T13:00:31Z</time>
      </trkpt>
      <trkpt lat="43.79711" lon="7.24817">
        <ele>745</ele>
        <time>2010-11-28T13:00:37Z</time>
      </trkpt>
      <trkpt lat="43.79719" lon="7.24808">
        <ele>746</ele>
        <time>2010-11-28T13:00:43Z</time>
      </trkpt>
      <trkpt lat="43.79727" lon="7.248">
        <ele>746</ele>
        <time>2010-11-28T13:00:49Z</time>
      </trkpt>
      <trkpt lat="43.79736" lon="7.24793">
        <ele>746</ele>
        <time>2010-11-28T13:00:55Z</time>
      </trkpt>
      <trkpt lat="43.79745" lon="7.24788">
        <ele>747</ele>
        <time>2010-11-28T13:01:00Z</time>
      </trkpt>
      <trkpt lat="43.79753" lon="7.24784">
        <ele>748</ele>
        <time>2010-11-28T13:01:05Z</time>
      </trkpt>
      <trkpt lat="43.79762" lon="7.24781">
        <ele>749</ele>
        <time>2010-11-28T13:01:10Z</time>
      </trkpt>
      <trkpt lat="43.79772" lon="7.24777">
        <ele>750</ele>
        <time>2010-11-28T13:01:16Z</time>
      </trkpt>
      <trkpt lat="43.79775" lon="7.24776">
        <ele>751</ele>
        <time>2010-11-28T13:01:17Z</time>
      </trkpt>
      <trkpt lat="43.79784" lon="7.24773">
        <ele>751</ele>
        <time>2010-11-28T13:01:22Z</time>
      </trkpt>
      <trkpt lat="43.79793" lon="7.24766">
        <ele>752</ele>
        <time>2010-11-28T13:01:26Z</time>
      </trkpt>
      <trkpt lat="43.79801" lon="7.24759">
        <ele>753</ele>
        <time>2010-11-28T13:01:31Z</time>
      </trkpt>
      <trkpt lat="43.7981" lon="7.24752">
        <ele>753</ele>
        <time>2010-11-28T13:01:36Z</time>
      </trkpt>
      <trkpt lat="43.79817" lon="7.24742">
        <ele>754</ele>
        <time>2010-11-28T13:01:40Z</time>
      </trkpt>
      <trkpt lat="43.79823" lon="7.24733">
        <ele>753</ele>
        <time>2010-11-28T13:01:44Z</time>
      </trkpt>
      <trkpt lat="43.79829" lon="7.24722">
        <ele>754</ele>
        <time>2010-11-28T13:01:49Z</time>
      </trkpt>
      <trkpt lat="43.79832" lon="7.24717">
        <ele>754</ele>
        <time>2010-11-28T13:01:51Z</time>
      </trkpt>
      <trkpt lat="43.79838" lon="7.24706">
        <ele>755</ele>
        <time>2010-11-28T13:01:57Z</time>
      </trkpt>
      <trkpt lat="43.79845" lon="7.24697">
        <ele>756</ele>
        <time>2010-11-28T13:02:02Z</time>
      </trkpt>
      <trkpt lat="43.79853" lon="7.24689">
        <ele>757</ele>
        <time>2010-11-28T13:02:08Z</time>
      </trkpt>
      <trkpt lat="43.79861" lon="7.24682">
        <ele>757</ele>
        <time>2010-11-28T13:02:14Z</time>
      </trkpt>
      <trkpt lat="43.7987" lon="7.24676">
        <ele>758</ele>
        <time>2010-11-28T13:02:20Z</time>
      </trkpt>
      <trkpt lat="43.79871" lon="7.24675">
        <ele>758</ele>
        <time>2010-11-28T13:02:21Z</time>
      </trkpt>
      <trkpt lat="43.79881" lon="7.2467">
        <ele>759</ele>
        <time>2010-11-28T13:02:26Z</time>
      </trkpt>
      <trkpt lat="43.79885" lon="7.24668">
        <ele>760</ele>
        <time>2010-11-28T13:02:28Z</time>
      </trkpt>
      <trkpt lat="43.79893" lon="7.24661">
        <ele>761</ele>
        <time>2010-11-28T13:02:34Z</time>
      </trkpt>
      <trkpt lat="43.79901" lon="7.24654">
        <ele>761</ele>
        <time>2010-11-28T13:02:39Z</time>
      </trkpt>
      <trkpt lat="43.79908" lon="7.24643">
        <ele>762</ele>
        <time>2010-11-28T13:02:45Z</time>
      </trkpt>
      <trkpt lat="43.79914" lon="7.24633">
        <ele>763</ele>
        <time>2010-11-28T13:02:50Z</time>
      </trkpt>
      <trkpt lat="43.7992" lon="7.24623">
        <ele>763</ele>
        <time>2010-11-28T13:02:56Z</time>
      </trkpt>
      <trkpt lat="43.79924" lon="7.24616">
        <ele>764</ele>
        <time>2010-11-28T13:02:59Z</time>
      </trkpt>
      <trkpt lat="43.7993" lon="7.24606">
        <ele>764</ele>
        <time>2010-11-28T13:03:05Z</time>
      </trkpt>
      <trkpt lat="43.79936" lon="7.24594">
        <ele>765</ele>
        <time>2010-11-28T13:03:10Z</time>
      </trkpt>
      <trkpt lat="43.79938" lon="7.24582">
        <ele>766</ele>
        <time>2010-11-28T13:03:15Z</time>
      </trkpt>
      <trkpt lat="43.79941" lon="7.24569">
        <ele>766</ele>
        <time>2010-11-28T13:03:19Z</time>
      </trkpt>
      <trkpt lat="43.79944" lon="7.24557">
        <ele>767</ele>
        <time>2010-11-28T13:03:24Z</time>
      </trkpt>
      <trkpt lat="43.79949" lon="7.24546">
        <ele>767</ele>
        <time>2010-11-28T13:03:29Z</time>
      </trkpt>
      <trkpt lat="43.79955" lon="7.24535">
        <ele>768</ele>
        <time>2010-11-28T13:03:34Z</time>
      </trkpt>
      <trkpt lat="43.79964" lon="7.24532">
        <ele>769</ele>
        <time>2010-11-28T13:03:40Z</time>
      </trkpt>
      <trkpt lat="43.79974" lon="7.24532">
        <ele>770</ele>
        <time>2010-11-28T13:03:45Z</time>
      </trkpt>
      <trkpt lat="43.79983" lon="7.24532">
        <ele>771</ele>
        <time>2010-11-28T13:03:49Z</time>
      </trkpt>
      <trkpt lat="43.79993" lon="7.24534">
        <ele>772</ele>
        <time>2010-11-28T13:03:54Z</time>
      </trkpt>
      <trkpt lat="43.80002" lon="7.24536">
        <ele>773</ele>
        <time>2010-11-28T13:03:59Z</time>
      </trkpt>
      <trkpt lat="43.80003" lon="7.24536">
        <ele>773</ele>
        <time>2010-11-28T13:04:00Z</time>
      </trkpt>
      <trkpt lat="43.80013" lon="7.2454">
        <ele>774</ele>
        <time>2010-11-28T13:04:05Z</time>
      </trkpt>
      <trkpt lat="43.80022" lon="7.24545">
        <ele>774</ele>
        <time>2010-11-28T13:04:10Z</time>
      </trkpt>
      <trkpt lat="43.80031" lon="7.2455">
        <ele>776</ele>
        <time>2010-11-28T13:04:16Z</time>
      </trkpt>
      <trkpt lat="43.8004" lon="7.24547">
        <ele>777</ele>
        <time>2010-11-28T13:04:23Z</time>
      </trkpt>
      <trkpt lat="43.80041" lon="7.24533">
        <ele>778</ele>
        <time>2010-11-28T13:04:28Z</time>
      </trkpt>
      <trkpt lat="43.80043" lon="7.2452">
        <ele>779</ele>
        <time>2010-11-28T13:04:34Z</time>
      </trkpt>
      <trkpt lat="43.80046" lon="7.24507">
        <ele>781</ele>
        <time>2010-11-28T13:04:40Z</time>
      </trkpt>
      <trkpt lat="43.80051" lon="7.24495">
        <ele>782</ele>
        <time>2010-11-28T13:04:46Z</time>
      </trkpt>
      <trkpt lat="43.80053" lon="7.2449">
        <ele>782</ele>
        <time>2010-11-28T13:04:48Z</time>
      </trkpt>
      <trkpt lat="43.80059" lon="7.24479">
        <ele>783</ele>
        <time>2010-11-28T13:04:54Z</time>
      </trkpt>
      <trkpt lat="43.80066" lon="7.2447">
        <ele>783</ele>
        <time>2010-11-28T13:05:00Z</time>
      </trkpt>
      <trkpt lat="43.80075" lon="7.24472">
        <ele>784</ele>
        <time>2010-11-28T13:05:05Z</time>
      </trkpt>
      <trkpt lat="43.80085" lon="7.24479">
        <ele>785</ele>
        <time>2010-11-28T13:05:08Z</time>
      </trkpt>
      <trkpt lat="43.8009" lon="7.24483">
        <ele>786</ele>
        <time>2010-11-28T13:05:11Z</time>
      </trkpt>
      <trkpt lat="43.80098" lon="7.24493">
        <ele>786</ele>
        <time>2010-11-28T13:05:15Z</time>
      </trkpt>
      <trkpt lat="43.80105" lon="7.24503">
        <ele>787</ele>
        <time>2010-11-28T13:05:21Z</time>
      </trkpt>
      <trkpt lat="43.80111" lon="7.24513">
        <ele>787</ele>
        <time>2010-11-28T13:05:25Z</time>
      </trkpt>
      <trkpt lat="43.80117" lon="7.24524">
        <ele>788</ele>
        <time>2010-11-28T13:05:31Z</time>
      </trkpt>
      <trkpt lat="43.80119" lon="7.24528">
        <ele>788</ele>
        <time>2010-11-28T13:05:33Z</time>
      </trkpt>
      <trkpt lat="43.80125" lon="7.24538">
        <ele>789</ele>
        <time>2010-11-28T13:05:38Z</time>
      </trkpt>
      <trkpt lat="43.80127" lon="7.2454">
        <ele>789</ele>
        <time>2010-11-28T13:05:40Z</time>
      </trkpt>
      <trkpt lat="43.80132" lon="7.24551">
        <ele>790</ele>
        <time>2010-11-28T13:05:45Z</time>
      </trkpt>
      <trkpt lat="43.80139" lon="7.2456">
        <ele>791</ele>
        <time>2010-11-28T13:05:50Z</time>
      </trkpt>
      <trkpt lat="43.80142" lon="7.24566">
        <ele>792</ele>
        <time>2010-11-28T13:05:53Z</time>
      </trkpt>
      <trkpt lat="43.80148" lon="7.24575">
        <ele>793</ele>
        <time>2010-11-28T13:05:59Z</time>
      </trkpt>
      <trkpt lat="43.80156" lon="7.24584">
        <ele>794</ele>
        <time>2010-11-28T13:06:06Z</time>
      </trkpt>
      <trkpt lat="43.80164" lon="7.2459">
        <ele>794</ele>
        <time>2010-11-28T13:06:13Z</time>
      </trkpt>
      <trkpt lat="43.80166" lon="7.2459">
        <ele>795</ele>
        <time>2010-11-28T13:06:15Z</time>
      </trkpt>
      <trkpt lat="43.80175" lon="7.24591">
        <ele>795</ele>
        <time>2010-11-28T13:06:22Z</time>
      </trkpt>
      <trkpt lat="43.80185" lon="7.24587">
        <ele>796</ele>
        <time>2010-11-28T13:06:29Z</time>
      </trkpt>
      <trkpt lat="43.80194" lon="7.24584">
        <ele>797</ele>
        <time>2010-11-28T13:06:36Z</time>
      </trkpt>
      <trkpt lat="43.80203" lon="7.24582">
        <ele>798</ele>
        <time>2010-11-28T13:06:43Z</time>
      </trkpt>
      <trkpt lat="43.80212" lon="7.24576">
        <ele>799</ele>
        <time>2010-11-28T13:06:51Z</time>
      </trkpt>
      <trkpt lat="43.8022" lon="7.24571">
        <ele>799</ele>
        <time>2010-11-28T13:06:58Z</time>
      </trkpt>
      <trkpt lat="43.80229" lon="7.24566">
        <ele>801</ele>
        <time>2010-11-28T13:07:06Z</time>
      </trkpt>
      <trkpt lat="43.80238" lon="7.24562">
        <ele>802</ele>
        <time>2010-11-28T13:07:13Z</time>
      </trkpt>
      <trkpt lat="43.80245" lon="7.24554">
        <ele>804</ele>
        <time>2010-11-28T13:07:21Z</time>
      </trkpt>
      <trkpt lat="43.80252" lon="7.24546">
        <ele>806</ele>
        <time>2010-11-28T13:07:29Z</time>
      </trkpt>
      <trkpt lat="43.80259" lon="7.24543">
        <ele>807</ele>
        <time>2010-11-28T13:07:35Z</time>
      </trkpt>
      <trkpt lat="43.80268" lon="7.2454">
        <ele>808</ele>
        <time>2010-11-28T13:07:43Z</time>
      </trkpt>
      <trkpt lat="43.80277" lon="7.24536">
        <ele>809</ele>
        <time>2010-11-28T13:07:51Z</time>
      </trkpt>
      <trkpt lat="43.80287" lon="7.24534">
        <ele>810</ele>
        <time>2010-11-28T13:07:59Z</time>
      </trkpt>
      <trkpt lat="43.80296" lon="7.24532">
        <ele>812</ele>
        <time>2010-11-28T13:08:08Z</time>
      </trkpt>
      <trkpt lat="43.80297" lon="7.24532">
        <ele>812</ele>
        <time>2010-11-28T13:08:08Z</time>
      </trkpt>
      <trkpt lat="43.80306" lon="7.24528">
        <ele>813</ele>
        <time>2010-11-28T13:08:17Z</time>
      </trkpt>
      <trkpt lat="43.80315" lon="7.24524">
        <ele>816</ele>
        <time>2010-11-28T13:08:26Z</time>
      </trkpt>
      <trkpt lat="43.80325" lon="7.24523">
        <ele>816</ele>
        <time>2010-11-28T13:08:33Z</time>
      </trkpt>
      <trkpt lat="43.80335" lon="7.24522">
        <ele>817</ele>
        <time>2010-11-28T13:08:39Z</time>
      </trkpt>
      <trkpt lat="43.80341" lon="7.24521">
        <ele>818</ele>
        <time>2010-11-28T13:08:42Z</time>
      </trkpt>
      <trkpt lat="43.80352" lon="7.24521">
        <ele>819</ele>
        <time>2010-11-28T13:08:48Z</time>
      </trkpt>
      <trkpt lat="43.80358" lon="7.2452">
        <ele>819</ele>
        <time>2010-11-28T13:08:51Z</time>
      </trkpt>
      <trkpt lat="43.80367" lon="7.24519">
        <ele>820</ele>
        <time>2010-11-28T13:08:55Z</time>
      </trkpt>
      <trkpt lat="43.80378" lon="7.24518">
        <ele>820</ele>
        <time>2010-11-28T13:09:00Z</time>
      </trkpt>
      <trkpt lat="43.80387" lon="7.24516">
        <ele>820</ele>
        <time>2010-11-28T13:09:04Z</time>
      </trkpt>
      <trkpt lat="43.80397" lon="7.24516">
        <ele>821</ele>
        <time>2010-11-28T13:09:09Z</time>
      </trkpt>
      <trkpt lat="43.80407" lon="7.24514">
        <ele>822</ele>
        <time>2010-11-28T13:09:14Z</time>
      </trkpt>
      <trkpt lat="43.80418" lon="7.24514">
        <ele>822</ele>
        <time>2010-11-28T13:09:19Z</time>
      </trkpt>
      <trkpt lat="43.80428" lon="7.24512">
        <ele>823</ele>
        <time>2010-11-28T13:09:25Z</time>
      </trkpt>
      <trkpt lat="43.80438" lon="7.24511">
        <ele>823</ele>
        <time>2010-11-28T13:09:30Z</time>
      </trkpt>
      <trkpt lat="43.80448" lon="7.24509">
        <ele>824</ele>
        <time>2010-11-28T13:09:36Z</time>
      </trkpt>
      <trkpt lat="43.80457" lon="7.24508">
        <ele>825</ele>
        <time>2010-11-28T13:09:41Z</time>
      </trkpt>
      <trkpt lat="43.80467" lon="7.24507">
        <ele>826</ele>
        <time>2010-11-28T13:09:46Z</time>
      </trkpt>
      <trkpt lat="43.80477" lon="7.24505">
        <ele>826</ele>
        <time>2010-11-28T13:09:51Z</time>
      </trkpt>
      <trkpt lat="43.80486" lon="7.24504">
        <ele>827</ele>
        <time>2010-11-28T13:09:55Z</time>
      </trkpt>
      <trkpt lat="43.80496" lon="7.24503">
        <ele>827</ele>
        <time>2010-11-28T13:09:59Z</time>
      </trkpt>
      <trkpt lat="43.80508" lon="7.24503">
        <ele>827</ele>
        <time>2010-11-28T13:10:02Z</time>
      </trkpt>
      <trkpt lat="43.80519" lon="7.24503">
        <ele>828</ele>
        <time>2010-11-28T13:10:05Z</time>
      </trkpt>
      <trkpt lat="43.80528" lon="7.24504">
        <ele>827</ele>
        <time>2010-11-28T13:10:08Z</time>
      </trkpt>
      <trkpt lat="43.80538" lon="7.24507">
        <ele>827</ele>
        <time>2010-11-28T13:10:12Z</time>
      </trkpt>
      <trkpt lat="43.80547" lon="7.24508">
        <ele>828</ele>
        <time>2010-11-28T13:10:15Z</time>
      </trkpt>
      <trkpt lat="43.80556" lon="7.24508">
        <ele>828</ele>
        <time>2010-11-28T13:10:17Z</time>
      </trkpt>
      <trkpt lat="43.80566" lon="7.24507">
        <ele>828</ele>
        <time>2010-11-28T13:10:19Z</time>
      </trkpt>
      <trkpt lat="43.80576" lon="7.24505">
        <ele>829</ele>
        <time>2010-11-28T13:10:22Z</time>
      </trkpt>
      <trkpt lat="43.80587" lon="7.24503">
        <ele>829</ele>
        <time>2010-11-28T13:10:25Z</time>
      </trkpt>
      <trkpt lat="43.80597" lon="7.245">
        <ele>829</ele>
        <time>2010-11-28T13:10:27Z</time>
      </trkpt>
      <trkpt lat="43.8061" lon="7.24497">
        <ele>829</ele>
        <time>2010-11-28T13:10:30Z</time>
      </trkpt>
      <trkpt lat="43.80622" lon="7.24497">
        <ele>829</ele>
        <time>2010-11-28T13:10:32Z</time>
      </trkpt>
      <trkpt lat="43.80631" lon="7.24496">
        <ele>830</ele>
        <time>2010-11-28T13:10:34Z</time>
      </trkpt>
      <trkpt lat="43.80641" lon="7.24496">
        <ele>830</ele>
        <time>2010-11-28T13:10:37Z</time>
      </trkpt>
      <trkpt lat="43.80651" lon="7.24495">
        <ele>830</ele>
        <time>2010-11-28T13:10:39Z</time>
      </trkpt>
      <trkpt lat="43.8066" lon="7.24493">
        <ele>830</ele>
        <time>2010-11-28T13:10:41Z</time>
      </trkpt>
      <trkpt lat="43.8067" lon="7.24492">
        <ele>830</ele>
        <time>2010-11-28T13:10:44Z</time>
      </trkpt>
      <trkpt lat="43.80679" lon="7.2449">
        <ele>830</ele>
        <time>2010-11-28T13:10:46Z</time>
      </trkpt>
      <trkpt lat="43.80689" lon="7.24489">
        <ele>830</ele>
        <time>2010-11-28T13:10:48Z</time>
      </trkpt>
      <trkpt lat="43.807" lon="7.24488">
        <ele>830</ele>
        <time>2010-11-28T13:10:51Z</time>
      </trkpt>
      <trkpt lat="43.8071" lon="7.24486">
        <ele>831</ele>
        <time>2010-11-28T13:10:54Z</time>
      </trkpt>
      <trkpt lat="43.80719" lon="7.24484">
        <ele>831</ele>
        <time>2010-11-28T13:10:58Z</time>
      </trkpt>
      <trkpt lat="43.80728" lon="7.24482">
        <ele>831</ele>
        <time>2010-11-28T13:11:01Z</time>
      </trkpt>
      <trkpt lat="43.80739" lon="7.24482">
        <ele>832</ele>
        <time>2010-11-28T13:11:05Z</time>
      </trkpt>
      <trkpt lat="43.80749" lon="7.24482">
        <ele>832</ele>
        <time>2010-11-28T13:11:08Z</time>
      </trkpt>
      <trkpt lat="43.8076" lon="7.24483">
        <ele>832</ele>
        <time>2010-11-28T13:11:11Z</time>
      </trkpt>
      <trkpt lat="43.8077" lon="7.24485">
        <ele>832</ele>
        <time>2010-11-28T13:11:14Z</time>
      </trkpt>
      <trkpt lat="43.80782" lon="7.24488">
        <ele>833</ele>
        <time>2010-11-28T13:11:17Z</time>
      </trkpt>
      <trkpt lat="43.80791" lon="7.24493">
        <ele>833</ele>
        <time>2010-11-28T13:11:20Z</time>
      </trkpt>
      <trkpt lat="43.80799" lon="7.24504">
        <ele>833</ele>
        <time>2010-11-28T13:11:24Z</time>
      </trkpt>
      <trkpt lat="43.80803" lon="7.24518">
        <ele>833</ele>
        <time>2010-11-28T13:11:28Z</time>
      </trkpt>
      <trkpt lat="43.80808" lon="7.24531">
        <ele>833</ele>
        <time>2010-11-28T13:11:31Z</time>
      </trkpt>
      <trkpt lat="43.80809" lon="7.24534">
        <ele>833</ele>
        <time>2010-11-28T13:11:32Z</time>
      </trkpt>
      <trkpt lat="43.80812" lon="7.24549">
        <ele>833</ele>
        <time>2010-11-28T13:11:36Z</time>
      </trkpt>
      <trkpt lat="43.80821" lon="7.24555">
        <ele>834</ele>
        <time>2010-11-28T13:11:40Z</time>
      </trkpt>
      <trkpt lat="43.80825" lon="7.24553">
        <ele>834</ele>
        <time>2010-11-28T13:11:41Z</time>
      </trkpt>
      <trkpt lat="43.80834" lon="7.24548">
        <ele>835</ele>
        <time>2010-11-28T13:11:45Z</time>
      </trkpt>
      <trkpt lat="43.80843" lon="7.24543">
        <ele>836</ele>
        <time>2010-11-28T13:11:49Z</time>
      </trkpt>
      <trkpt lat="43.80853" lon="7.24539">
        <ele>836</ele>
        <time>2010-11-28T13:11:53Z</time>
      </trkpt>
      <trkpt lat="43.80862" lon="7.24534">
        <ele>836</ele>
        <time>2010-11-28T13:11:56Z</time>
      </trkpt>
      <trkpt lat="43.80871" lon="7.24528">
        <ele>837</ele>
        <time>2010-11-28T13:11:59Z</time>
      </trkpt>
      <trkpt lat="43.80881" lon="7.24522">
        <ele>836</ele>
        <time>2010-11-28T13:12:02Z</time>
      </trkpt>
      <trkpt lat="43.8089" lon="7.24521">
        <ele>836</ele>
        <time>2010-11-28T13:12:04Z</time>
      </trkpt>
      <trkpt lat="43.809" lon="7.2452">
        <ele>836</ele>
        <time>2010-11-28T13:12:06Z</time>
      </trkpt>
      <trkpt lat="43.8091" lon="7.24519">
        <ele>836</ele>
        <time>2010-11-28T13:12:09Z</time>
      </trkpt>
      <trkpt lat="43.80918" lon="7.24516">
        <ele>836</ele>
        <time>2010-11-28T13:12:14Z</time>
      </trkpt>
      <trkpt lat="43.80925" lon="7.24507">
        <ele>836</ele>
        <time>2010-11-28T13:12:19Z</time>
      </trkpt>
      <trkpt lat="43.80926" lon="7.24506">
        <ele>836</ele>
        <time>2010-11-28T13:12:42Z</time>
      </trkpt>
      <trkpt lat="43.80926" lon="7.24506">
        <ele>836</ele>
        <time>2010-11-28T13:13:57Z</time>
      </trkpt>
      <trkpt lat="43.80926" lon="7.24506">
        <ele>836</ele>
        <time>2010-11-28T13:13:57Z</time>
      </trkpt>
      <trkpt lat="43.80926" lon="7.24506">
        <ele>836</ele>
        <time>2010-11-28T13:14:05Z</time>
      </trkpt>
      <trkpt lat="43.80924" lon="7.24501">
        <ele>831</ele>
        <time>2010-11-28T13:15:09Z</time>
      </trkpt>
      <trkpt lat="43.80918" lon="7.24491">
        <ele>831</ele>
        <time>2010-11-28T13:15:12Z</time>
      </trkpt>
      <trkpt lat="43.8091" lon="7.24482">
        <ele>831</ele>
        <time>2010-11-28T13:15:15Z</time>
      </trkpt>
      <trkpt lat="43.809" lon="7.24476">
        <ele>831</ele>
        <time>2010-11-28T13:15:18Z</time>
      </trkpt>
      <trkpt lat="43.80895" lon="7.24471">
        <ele>832</ele>
        <time>2010-11-28T13:15:21Z</time>
      </trkpt>
      <trkpt lat="43.80887" lon="7.24462">
        <ele>832</ele>
        <time>2010-11-28T13:15:24Z</time>
      </trkpt>
      <trkpt lat="43.80878" lon="7.24458">
        <ele>832</ele>
        <time>2010-11-28T13:15:26Z</time>
      </trkpt>
      <trkpt lat="43.80868" lon="7.24458">
        <ele>831</ele>
        <time>2010-11-28T13:15:29Z</time>
      </trkpt>
      <trkpt lat="43.80857" lon="7.24453">
        <ele>831</ele>
        <time>2010-11-28T13:15:32Z</time>
      </trkpt>
      <trkpt lat="43.80848" lon="7.24446">
        <ele>831</ele>
        <time>2010-11-28T13:15:35Z</time>
      </trkpt>
      <trkpt lat="43.80839" lon="7.24442">
        <ele>829</ele>
        <time>2010-11-28T13:15:38Z</time>
      </trkpt>
      <trkpt lat="43.80824" lon="7.24432">
        <ele>824</ele>
        <time>2010-11-28T13:15:51Z</time>
      </trkpt>
      <trkpt lat="43.80815" lon="7.24426">
        <ele>823</ele>
        <time>2010-11-28T13:15:55Z</time>
      </trkpt>
      <trkpt lat="43.80807" lon="7.24419">
        <ele>822</ele>
        <time>2010-11-28T13:15:59Z</time>
      </trkpt>
      <trkpt lat="43.808" lon="7.2441">
        <ele>821</ele>
        <time>2010-11-28T13:16:15Z</time>
      </trkpt>
      <trkpt lat="43.80794" lon="7.244">
        <ele>819</ele>
        <time>2010-11-28T13:16:19Z</time>
      </trkpt>
      <trkpt lat="43.80795" lon="7.24386">
        <ele>818</ele>
        <time>2010-11-28T13:16:22Z</time>
      </trkpt>
      <trkpt lat="43.8079" lon="7.24375">
        <ele>816</ele>
        <time>2010-11-28T13:16:26Z</time>
      </trkpt>
      <trkpt lat="43.80782" lon="7.24367">
        <ele>814</ele>
        <time>2010-11-28T13:16:31Z</time>
      </trkpt>
      <trkpt lat="43.80774" lon="7.24358">
        <ele>813</ele>
        <time>2010-11-28T13:16:35Z</time>
      </trkpt>
      <trkpt lat="43.80764" lon="7.24352">
        <ele>812</ele>
        <time>2010-11-28T13:16:38Z</time>
      </trkpt>
      <trkpt lat="43.80754" lon="7.24346">
        <ele>812</ele>
        <time>2010-11-28T13:16:40Z</time>
      </trkpt>
      <trkpt lat="43.80745" lon="7.24339">
        <ele>812</ele>
        <time>2010-11-28T13:16:42Z</time>
      </trkpt>
      <trkpt lat="43.80738" lon="7.24331">
        <ele>812</ele>
        <time>2010-11-28T13:16:45Z</time>
      </trkpt>
      <trkpt lat="43.8073" lon="7.24322">
        <ele>811</ele>
        <time>2010-11-28T13:16:47Z</time>
      </trkpt>
      <trkpt lat="43.80723" lon="7.2431">
        <ele>811</ele>
        <time>2010-11-28T13:16:49Z</time>
      </trkpt>
      <trkpt lat="43.80716" lon="7.24297">
        <ele>810</ele>
        <time>2010-11-28T13:16:51Z</time>
      </trkpt>
      <trkpt lat="43.80713" lon="7.24282">
        <ele>809</ele>
        <time>2010-11-28T13:16:54Z</time>
      </trkpt>
      <trkpt lat="43.80712" lon="7.24267">
        <ele>808</ele>
        <time>2010-11-28T13:16:57Z</time>
      </trkpt>
      <trkpt lat="43.80713" lon="7.24253">
        <ele>806</ele>
        <time>2010-11-28T13:17:00Z</time>
      </trkpt>
      <trkpt lat="43.80711" lon="7.24239">
        <ele>803</ele>
        <time>2010-11-28T13:17:04Z</time>
      </trkpt>
      <trkpt lat="43.80709" lon="7.24224">
        <ele>801</ele>
        <time>2010-11-28T13:17:08Z</time>
      </trkpt>
      <trkpt lat="43.80708" lon="7.24211">
        <ele>801</ele>
        <time>2010-11-28T13:17:11Z</time>
      </trkpt>
      <trkpt lat="43.80713" lon="7.242">
        <ele>800</ele>
        <time>2010-11-28T13:17:15Z</time>
      </trkpt>
      <trkpt lat="43.80719" lon="7.2419">
        <ele>799</ele>
        <time>2010-11-28T13:17:18Z</time>
      </trkpt>
      <trkpt lat="43.80727" lon="7.24181">
        <ele>798</ele>
        <time>2010-11-28T13:17:22Z</time>
      </trkpt>
      <trkpt lat="43.80725" lon="7.2417">
        <ele>796</ele>
        <time>2010-11-28T13:17:31Z</time>
      </trkpt>
      <trkpt lat="43.80716" lon="7.2417">
        <ele>796</ele>
        <time>2010-11-28T13:17:34Z</time>
      </trkpt>
      <trkpt lat="43.80706" lon="7.24169">
        <ele>795</ele>
        <time>2010-11-28T13:17:39Z</time>
      </trkpt>
      <trkpt lat="43.80697" lon="7.24163">
        <ele>794</ele>
        <time>2010-11-28T13:17:44Z</time>
      </trkpt>
      <trkpt lat="43.80696" lon="7.24149">
        <ele>782</ele>
        <time>2010-11-28T13:18:29Z</time>
      </trkpt>
      <trkpt lat="43.80687" lon="7.24147">
        <ele>782</ele>
        <time>2010-11-28T13:18:35Z</time>
      </trkpt>
      <trkpt lat="43.80677" lon="7.24145">
        <ele>781</ele>
        <time>2010-11-28T13:18:41Z</time>
      </trkpt>
      <trkpt lat="43.80667" lon="7.24149">
        <ele>780</ele>
        <time>2010-11-28T13:18:45Z</time>
      </trkpt>
      <trkpt lat="43.80659" lon="7.24153">
        <ele>779</ele>
        <time>2010-11-28T13:18:47Z</time>
      </trkpt>
      <trkpt lat="43.80656" lon="7.24141">
        <ele>775</ele>
        <time>2010-11-28T13:18:57Z</time>
      </trkpt>
      <trkpt lat="43.80647" lon="7.24139">
        <ele>772</ele>
        <time>2010-11-28T13:19:03Z</time>
      </trkpt>
      <trkpt lat="43.80638" lon="7.24143">
        <ele>769</ele>
        <time>2010-11-28T13:19:08Z</time>
      </trkpt>
      <trkpt lat="43.80629" lon="7.24135">
        <ele>766</ele>
        <time>2010-11-28T13:19:15Z</time>
      </trkpt>
      <trkpt lat="43.80632" lon="7.24122">
        <ele>764</ele>
        <time>2010-11-28T13:19:18Z</time>
      </trkpt>
      <trkpt lat="43.8064" lon="7.24111">
        <ele>763</ele>
        <time>2010-11-28T13:19:21Z</time>
      </trkpt>
      <trkpt lat="43.80646" lon="7.24101">
        <ele>760</ele>
        <time>2010-11-28T13:19:26Z</time>
      </trkpt>
      <trkpt lat="43.80637" lon="7.24096">
        <ele>757</ele>
        <time>2010-11-28T13:19:32Z</time>
      </trkpt>
      <trkpt lat="43.80628" lon="7.24089">
        <ele>749</ele>
        <time>2010-11-28T13:19:46Z</time>
      </trkpt>
      <trkpt lat="43.80618" lon="7.2409">
        <ele>739</ele>
        <time>2010-11-28T13:20:02Z</time>
      </trkpt>
      <trkpt lat="43.80611" lon="7.2408">
        <ele>736</ele>
        <time>2010-11-28T13:20:08Z</time>
      </trkpt>
      <trkpt lat="43.80611" lon="7.24067">
        <ele>733</ele>
        <time>2010-11-28T13:20:12Z</time>
      </trkpt>
      <trkpt lat="43.8061" lon="7.24063">
        <ele>732</ele>
        <time>2010-11-28T13:20:14Z</time>
      </trkpt>
      <trkpt lat="43.806" lon="7.2406">
        <ele>729</ele>
        <time>2010-11-28T13:20:18Z</time>
      </trkpt>
      <trkpt lat="43.80589" lon="7.2406">
        <ele>724</ele>
        <time>2010-11-28T13:20:23Z</time>
      </trkpt>
      <trkpt lat="43.80579" lon="7.24061">
        <ele>722</ele>
        <time>2010-11-28T13:20:27Z</time>
      </trkpt>
      <trkpt lat="43.80571" lon="7.24049">
        <ele>719</ele>
        <time>2010-11-28T13:20:31Z</time>
      </trkpt>
      <trkpt lat="43.8057" lon="7.24036">
        <ele>718</ele>
        <time>2010-11-28T13:20:33Z</time>
      </trkpt>
      <trkpt lat="43.80569" lon="7.24021">
        <ele>718</ele>
        <time>2010-11-28T13:20:36Z</time>
      </trkpt>
      <trkpt lat="43.8057" lon="7.24009">
        <ele>717</ele>
        <time>2010-11-28T13:20:39Z</time>
      </trkpt>
      <trkpt lat="43.80575" lon="7.23998">
        <ele>715</ele>
        <time>2010-11-28T13:20:42Z</time>
      </trkpt>
      <trkpt lat="43.80584" lon="7.23993">
        <ele>714</ele>
        <time>2010-11-28T13:20:45Z</time>
      </trkpt>
      <trkpt lat="43.80593" lon="7.23986">
        <ele>711</ele>
        <time>2010-11-28T13:20:48Z</time>
      </trkpt>
      <trkpt lat="43.80601" lon="7.23976">
        <ele>708</ele>
        <time>2010-11-28T13:20:51Z</time>
      </trkpt>
      <trkpt lat="43.80609" lon="7.23968">
        <ele>706</ele>
        <time>2010-11-28T13:20:54Z</time>
      </trkpt>
      <trkpt lat="43.80616" lon="7.23961">
        <ele>702</ele>
        <time>2010-11-28T13:20:58Z</time>
      </trkpt>
      <trkpt lat="43.80625" lon="7.23953">
        <ele>698</ele>
        <time>2010-11-28T13:21:02Z</time>
      </trkpt>
      <trkpt lat="43.80629" lon="7.23949">
        <ele>697</ele>
        <time>2010-11-28T13:21:03Z</time>
      </trkpt>
      <trkpt lat="43.80637" lon="7.23942">
        <ele>695</ele>
        <time>2010-11-28T13:21:06Z</time>
      </trkpt>
      <trkpt lat="43.80646" lon="7.23934">
        <ele>692</ele>
        <time>2010-11-28T13:21:08Z</time>
      </trkpt>
      <trkpt lat="43.80653" lon="7.23925">
        <ele>689</ele>
        <time>2010-11-28T13:21:10Z</time>
      </trkpt>
      <trkpt lat="43.80658" lon="7.23918">
        <ele>687</ele>
        <time>2010-11-28T13:21:13Z</time>
      </trkpt>
      <trkpt lat="43.80658" lon="7.23905">
        <ele>682</ele>
        <time>2010-11-28T13:21:18Z</time>
      </trkpt>
      <trkpt lat="43.8066" lon="7.23892">
        <ele>680</ele>
        <time>2010-11-28T13:21:21Z</time>
      </trkpt>
      <trkpt lat="43.80667" lon="7.23879">
        <ele>678</ele>
        <time>2010-11-28T13:21:25Z</time>
      </trkpt>
      <trkpt lat="43.80675" lon="7.2387">
        <ele>675</ele>
        <time>2010-11-28T13:21:28Z</time>
      </trkpt>
      <trkpt lat="43.80689" lon="7.23876">
        <ele>670</ele>
        <time>2010-11-28T13:21:50Z</time>
      </trkpt>
      <trkpt lat="43.80689" lon="7.23876">
        <ele>670</ele>
        <time>2010-11-28T13:21:52Z</time>
      </trkpt>
      <trkpt lat="43.80698" lon="7.23873">
        <ele>670</ele>
        <time>2010-11-28T13:21:56Z</time>
      </trkpt>
      <trkpt lat="43.8071" lon="7.2387">
        <ele>670</ele>
        <time>2010-11-28T13:21:59Z</time>
      </trkpt>
      <trkpt lat="43.80721" lon="7.23867">
        <ele>669</ele>
        <time>2010-11-28T13:22:02Z</time>
      </trkpt>
      <trkpt lat="43.80731" lon="7.23866">
        <ele>669</ele>
        <time>2010-11-28T13:22:04Z</time>
      </trkpt>
      <trkpt lat="43.80741" lon="7.23866">
        <ele>667</ele>
        <time>2010-11-28T13:22:11Z</time>
      </trkpt>
      <trkpt lat="43.80751" lon="7.23865">
        <ele>667</ele>
        <time>2010-11-28T13:22:14Z</time>
      </trkpt>
      <trkpt lat="43.80761" lon="7.23862">
        <ele>668</ele>
        <time>2010-11-28T13:22:16Z</time>
      </trkpt>
      <trkpt lat="43.80767" lon="7.23851">
        <ele>667</ele>
        <time>2010-11-28T13:22:20Z</time>
      </trkpt>
      <trkpt lat="43.80769" lon="7.23837">
        <ele>666</ele>
        <time>2010-11-28T13:22:24Z</time>
      </trkpt>
      <trkpt lat="43.80771" lon="7.23825">
        <ele>664</ele>
        <time>2010-11-28T13:22:28Z</time>
      </trkpt>
      <trkpt lat="43.80769" lon="7.23812">
        <ele>663</ele>
        <time>2010-11-28T13:22:33Z</time>
      </trkpt>
      <trkpt lat="43.80762" lon="7.23805">
        <ele>659</ele>
        <time>2010-11-28T13:22:37Z</time>
      </trkpt>
      <trkpt lat="43.80767" lon="7.23794">
        <ele>654</ele>
        <time>2010-11-28T13:22:42Z</time>
      </trkpt>
      <trkpt lat="43.80769" lon="7.23781">
        <ele>650</ele>
        <time>2010-11-28T13:22:47Z</time>
      </trkpt>
      <trkpt lat="43.80769" lon="7.23768">
        <ele>647</ele>
        <time>2010-11-28T13:22:51Z</time>
      </trkpt>
      <trkpt lat="43.80775" lon="7.23755">
        <ele>643</ele>
        <time>2010-11-28T13:22:56Z</time>
      </trkpt>
      <trkpt lat="43.80779" lon="7.23743">
        <ele>640</ele>
        <time>2010-11-28T13:23:00Z</time>
      </trkpt>
      <trkpt lat="43.80783" lon="7.23729">
        <ele>638</ele>
        <time>2010-11-28T13:23:04Z</time>
      </trkpt>
      <trkpt lat="43.8079" lon="7.23718">
        <ele>635</ele>
        <time>2010-11-28T13:23:07Z</time>
      </trkpt>
      <trkpt lat="43.80798" lon="7.23709">
        <ele>633</ele>
        <time>2010-11-28T13:23:10Z</time>
      </trkpt>
      <trkpt lat="43.80808" lon="7.23704">
        <ele>631</ele>
        <time>2010-11-28T13:23:13Z</time>
      </trkpt>
      <trkpt lat="43.80818" lon="7.23703">
        <ele>630</ele>
        <time>2010-11-28T13:23:16Z</time>
      </trkpt>
      <trkpt lat="43.80828" lon="7.23698">
        <ele>628</ele>
        <time>2010-11-28T13:23:19Z</time>
      </trkpt>
      <trkpt lat="43.80835" lon="7.23687">
        <ele>626</ele>
        <time>2010-11-28T13:23:22Z</time>
      </trkpt>
      <trkpt lat="43.80841" lon="7.23674">
        <ele>624</ele>
        <time>2010-11-28T13:23:25Z</time>
      </trkpt>
      <trkpt lat="43.80846" lon="7.23661">
        <ele>622</ele>
        <time>2010-11-28T13:23:28Z</time>
      </trkpt>
      <trkpt lat="43.8085" lon="7.23649">
        <ele>620</ele>
        <time>2010-11-28T13:23:31Z</time>
      </trkpt>
      <trkpt lat="43.80852" lon="7.23636">
        <ele>619</ele>
        <time>2010-11-28T13:23:35Z</time>
      </trkpt>
      <trkpt lat="43.80855" lon="7.23622">
        <ele>617</ele>
        <time>2010-11-28T13:23:38Z</time>
      </trkpt>
      <trkpt lat="43.80858" lon="7.23609">
        <ele>614</ele>
        <time>2010-11-28T13:23:42Z</time>
      </trkpt>
      <trkpt lat="43.80861" lon="7.23595">
        <ele>612</ele>
        <time>2010-11-28T13:23:46Z</time>
      </trkpt>
      <trkpt lat="43.80866" lon="7.23583">
        <ele>609</ele>
        <time>2010-11-28T13:23:50Z</time>
      </trkpt>
      <trkpt lat="43.80874" lon="7.23571">
        <ele>607</ele>
        <time>2010-11-28T13:23:54Z</time>
      </trkpt>
      <trkpt lat="43.80881" lon="7.23559">
        <ele>606</ele>
        <time>2010-11-28T13:23:57Z</time>
      </trkpt>
      <trkpt lat="43.80886" lon="7.23548">
        <ele>605</ele>
        <time>2010-11-28T13:23:59Z</time>
      </trkpt>
      <trkpt lat="43.80887" lon="7.23532">
        <ele>603</ele>
        <time>2010-11-28T13:24:02Z</time>
      </trkpt>
      <trkpt lat="43.80893" lon="7.23521">
        <ele>600</ele>
        <time>2010-11-28T13:24:10Z</time>
      </trkpt>
      <trkpt lat="43.809" lon="7.23507">
        <ele>600</ele>
        <time>2010-11-28T13:24:13Z</time>
      </trkpt>
      <trkpt lat="43.80906" lon="7.23496">
        <ele>599</ele>
        <time>2010-11-28T13:24:17Z</time>
      </trkpt>
      <trkpt lat="43.80915" lon="7.23489">
        <ele>598</ele>
        <time>2010-11-28T13:24:20Z</time>
      </trkpt>
      <trkpt lat="43.80923" lon="7.23478">
        <ele>595</ele>
        <time>2010-11-28T13:24:24Z</time>
      </trkpt>
      <trkpt lat="43.80928" lon="7.23469">
        <ele>593</ele>
        <time>2010-11-28T13:24:28Z</time>
      </trkpt>
      <trkpt lat="43.80936" lon="7.2346">
        <ele>590</ele>
        <time>2010-11-28T13:24:31Z</time>
      </trkpt>
      <trkpt lat="43.80946" lon="7.23451">
        <ele>587</ele>
        <time>2010-11-28T13:24:34Z</time>
      </trkpt>
      <trkpt lat="43.80948" lon="7.23449">
        <ele>587</ele>
        <time>2010-11-28T13:24:35Z</time>
      </trkpt>
      <trkpt lat="43.80957" lon="7.23446">
        <ele>585</ele>
        <time>2010-11-28T13:24:38Z</time>
      </trkpt>
      <trkpt lat="43.80966" lon="7.23443">
        <ele>582</ele>
        <time>2010-11-28T13:24:41Z</time>
      </trkpt>
      <trkpt lat="43.80975" lon="7.23435">
        <ele>578</ele>
        <time>2010-11-28T13:24:45Z</time>
      </trkpt>
      <trkpt lat="43.80982" lon="7.23438">
        <ele>575</ele>
        <time>2010-11-28T13:24:48Z</time>
      </trkpt>
      <trkpt lat="43.80991" lon="7.23433">
        <ele>573</ele>
        <time>2010-11-28T13:24:52Z</time>
      </trkpt>
      <trkpt lat="43.80991" lon="7.2342">
        <ele>571</ele>
        <time>2010-11-28T13:24:55Z</time>
      </trkpt>
      <trkpt lat="43.80996" lon="7.23409">
        <ele>569</ele>
        <time>2010-11-28T13:25:00Z</time>
      </trkpt>
      <trkpt lat="43.80998" lon="7.2341">
        <ele>568</ele>
        <time>2010-11-28T13:25:01Z</time>
      </trkpt>
      <trkpt lat="43.81007" lon="7.23403">
        <ele>566</ele>
        <time>2010-11-28T13:25:05Z</time>
      </trkpt>
      <trkpt lat="43.81009" lon="7.23391">
        <ele>564</ele>
        <time>2010-11-28T13:25:10Z</time>
      </trkpt>
      <trkpt lat="43.81021" lon="7.23389">
        <ele>555</ele>
        <time>2010-11-28T13:25:28Z</time>
      </trkpt>
      <trkpt lat="43.81028" lon="7.23379">
        <ele>554</ele>
        <time>2010-11-28T13:25:33Z</time>
      </trkpt>
      <trkpt lat="43.81035" lon="7.23371">
        <ele>551</ele>
        <time>2010-11-28T13:25:39Z</time>
      </trkpt>
      <trkpt lat="43.81044" lon="7.23365">
        <ele>550</ele>
        <time>2010-11-28T13:25:44Z</time>
      </trkpt>
      <trkpt lat="43.81053" lon="7.23363">
        <ele>549</ele>
        <time>2010-11-28T13:25:49Z</time>
      </trkpt>
      <trkpt lat="43.81062" lon="7.23359">
        <ele>548</ele>
        <time>2010-11-28T13:25:55Z</time>
      </trkpt>
      <trkpt lat="43.81065" lon="7.23347">
        <ele>548</ele>
        <time>2010-11-28T13:26:00Z</time>
      </trkpt>
      <trkpt lat="43.8107" lon="7.23336">
        <ele>548</ele>
        <time>2010-11-28T13:26:06Z</time>
      </trkpt>
      <trkpt lat="43.81074" lon="7.23333">
        <ele>548</ele>
        <time>2010-11-28T13:26:08Z</time>
      </trkpt>
      <trkpt lat="43.81087" lon="7.23328">
        <ele>551</ele>
        <time>2010-11-28T13:26:32Z</time>
      </trkpt>
      <trkpt lat="43.81092" lon="7.23317">
        <ele>551</ele>
        <time>2010-11-28T13:26:39Z</time>
      </trkpt>
      <trkpt lat="43.81099" lon="7.23307">
        <ele>551</ele>
        <time>2010-11-28T13:26:44Z</time>
      </trkpt>
      <trkpt lat="43.81098" lon="7.23294">
        <ele>551</ele>
        <time>2010-11-28T13:26:50Z</time>
      </trkpt>
      <trkpt lat="43.81096" lon="7.23281">
        <ele>552</ele>
        <time>2010-11-28T13:26:56Z</time>
      </trkpt>
      <trkpt lat="43.81091" lon="7.2327">
        <ele>552</ele>
        <time>2010-11-28T13:27:03Z</time>
      </trkpt>
      <trkpt lat="43.81093" lon="7.23257">
        <ele>552</ele>
        <time>2010-11-28T13:27:15Z</time>
      </trkpt>
      <trkpt lat="43.811" lon="7.23245">
        <ele>554</ele>
        <time>2010-11-28T13:27:22Z</time>
      </trkpt>
      <trkpt lat="43.81106" lon="7.23232">
        <ele>554</ele>
        <time>2010-11-28T13:27:26Z</time>
      </trkpt>
      <trkpt lat="43.81107" lon="7.2323">
        <ele>554</ele>
        <time>2010-11-28T13:27:27Z</time>
      </trkpt>
      <trkpt lat="43.81113" lon="7.23224">
        <ele>552</ele>
        <time>2010-11-28T13:27:40Z</time>
      </trkpt>
      <trkpt lat="43.81117" lon="7.23212">
        <ele>551</ele>
        <time>2010-11-28T13:27:57Z</time>
      </trkpt>
      <trkpt lat="43.81122" lon="7.23201">
        <ele>552</ele>
        <time>2010-11-28T13:28:04Z</time>
      </trkpt>
      <trkpt lat="43.81122" lon="7.232">
        <ele>552</ele>
        <time>2010-11-28T13:28:05Z</time>
      </trkpt>
      <trkpt lat="43.81128" lon="7.2319">
        <ele>553</ele>
        <time>2010-11-28T13:28:11Z</time>
      </trkpt>
      <trkpt lat="43.81133" lon="7.23179">
        <ele>553</ele>
        <time>2010-11-28T13:28:17Z</time>
      </trkpt>
      <trkpt lat="43.81137" lon="7.23167">
        <ele>553</ele>
        <time>2010-11-28T13:28:24Z</time>
      </trkpt>
      <trkpt lat="43.81138" lon="7.23154">
        <ele>553</ele>
        <time>2010-11-28T13:28:31Z</time>
      </trkpt>
      <trkpt lat="43.81138" lon="7.23152">
        <ele>553</ele>
        <time>2010-11-28T13:28:32Z</time>
      </trkpt>
      <trkpt lat="43.81139" lon="7.23139">
        <ele>554</ele>
        <time>2010-11-28T13:28:38Z</time>
      </trkpt>
      <trkpt lat="43.8114" lon="7.23138">
        <ele>554</ele>
        <time>2010-11-28T13:28:39Z</time>
      </trkpt>
      <trkpt lat="43.81144" lon="7.23126">
        <ele>556</ele>
        <time>2010-11-28T13:28:45Z</time>
      </trkpt>
      <trkpt lat="43.81151" lon="7.23117">
        <ele>556</ele>
        <time>2010-11-28T13:28:51Z</time>
      </trkpt>
      <trkpt lat="43.81158" lon="7.23108">
        <ele>557</ele>
        <time>2010-11-28T13:28:59Z</time>
      </trkpt>
      <trkpt lat="43.81166" lon="7.231">
        <ele>559</ele>
        <time>2010-11-28T13:29:06Z</time>
      </trkpt>
      <trkpt lat="43.81173" lon="7.23093">
        <ele>560</ele>
        <time>2010-11-28T13:29:15Z</time>
      </trkpt>
      <trkpt lat="43.81181" lon="7.23086">
        <ele>562</ele>
        <time>2010-11-28T13:29:23Z</time>
      </trkpt>
      <trkpt lat="43.81189" lon="7.23078">
        <ele>563</ele>
        <time>2010-11-28T13:29:31Z</time>
      </trkpt>
      <trkpt lat="43.81198" lon="7.2308">
        <ele>564</ele>
        <time>2010-11-28T13:29:41Z</time>
      </trkpt>
      <trkpt lat="43.81198" lon="7.23094">
        <ele>565</ele>
        <time>2010-11-28T13:29:50Z</time>
      </trkpt>
      <trkpt lat="43.81194" lon="7.23106">
        <ele>568</ele>
        <time>2010-11-28T13:29:56Z</time>
      </trkpt>
      <trkpt lat="43.8119" lon="7.23118">
        <ele>570</ele>
        <time>2010-11-28T13:30:05Z</time>
      </trkpt>
      <trkpt lat="43.81188" lon="7.23131">
        <ele>572</ele>
        <time>2010-11-28T13:30:13Z</time>
      </trkpt>
      <trkpt lat="43.81186" lon="7.23139">
        <ele>572</ele>
        <time>2010-11-28T13:30:17Z</time>
      </trkpt>
      <trkpt lat="43.81185" lon="7.23152">
        <ele>574</ele>
        <time>2010-11-28T13:30:25Z</time>
      </trkpt>
      <trkpt lat="43.81184" lon="7.23165">
        <ele>576</ele>
        <time>2010-11-28T13:30:33Z</time>
      </trkpt>
      <trkpt lat="43.81183" lon="7.23178">
        <ele>577</ele>
        <time>2010-11-28T13:30:39Z</time>
      </trkpt>
      <trkpt lat="43.81182" lon="7.23186">
        <ele>579</ele>
        <time>2010-11-28T13:30:45Z</time>
      </trkpt>
      <trkpt lat="43.81183" lon="7.232">
        <ele>581</ele>
        <time>2010-11-28T13:30:53Z</time>
      </trkpt>
      <trkpt lat="43.81183" lon="7.2321">
        <ele>582</ele>
        <time>2010-11-28T13:31:00Z</time>
      </trkpt>
      <trkpt lat="43.81184" lon="7.23223">
        <ele>584</ele>
        <time>2010-11-28T13:31:09Z</time>
      </trkpt>
      <trkpt lat="43.81191" lon="7.23216">
        <ele>587</ele>
        <time>2010-11-28T13:31:18Z</time>
      </trkpt>
      <trkpt lat="43.81194" lon="7.23209">
        <ele>587</ele>
        <time>2010-11-28T13:31:22Z</time>
      </trkpt>
      <trkpt lat="43.81196" lon="7.23197">
        <ele>589</ele>
        <time>2010-11-28T13:31:29Z</time>
      </trkpt>
      <trkpt lat="43.81197" lon="7.23184">
        <ele>589</ele>
        <time>2010-11-28T13:31:37Z</time>
      </trkpt>
      <trkpt lat="43.81203" lon="7.23174">
        <ele>590</ele>
        <time>2010-11-28T13:31:47Z</time>
      </trkpt>
      <trkpt lat="43.8121" lon="7.23184">
        <ele>591</ele>
        <time>2010-11-28T13:31:55Z</time>
      </trkpt>
      <trkpt lat="43.81214" lon="7.23196">
        <ele>592</ele>
        <time>2010-11-28T13:32:02Z</time>
      </trkpt>
      <trkpt lat="43.81218" lon="7.23208">
        <ele>594</ele>
        <time>2010-11-28T13:32:09Z</time>
      </trkpt>
      <trkpt lat="43.81218" lon="7.23209">
        <ele>594</ele>
        <time>2010-11-28T13:32:09Z</time>
      </trkpt>
      <trkpt lat="43.81227" lon="7.23213">
        <ele>594</ele>
        <time>2010-11-28T13:32:16Z</time>
      </trkpt>
      <trkpt lat="43.81236" lon="7.23209">
        <ele>594</ele>
        <time>2010-11-28T13:32:22Z</time>
      </trkpt>
      <trkpt lat="43.81245" lon="7.23208">
        <ele>595</ele>
        <time>2010-11-28T13:32:27Z</time>
      </trkpt>
      <trkpt lat="43.81255" lon="7.23206">
        <ele>596</ele>
        <time>2010-11-28T13:32:31Z</time>
      </trkpt>
      <trkpt lat="43.81265" lon="7.23202">
        <ele>596</ele>
        <time>2010-11-28T13:32:34Z</time>
      </trkpt>
      <trkpt lat="43.81272" lon="7.23193">
        <ele>596</ele>
        <time>2010-11-28T13:32:36Z</time>
      </trkpt>
      <trkpt lat="43.81271" lon="7.23174">
        <ele>596</ele>
        <time>2010-11-28T13:32:39Z</time>
      </trkpt>
      <trkpt lat="43.8127" lon="7.23161">
        <ele>596</ele>
        <time>2010-11-28T13:32:40Z</time>
      </trkpt>
      <trkpt lat="43.81269" lon="7.23148">
        <ele>596</ele>
        <time>2010-11-28T13:32:42Z</time>
      </trkpt>
      <trkpt lat="43.81267" lon="7.23132">
        <ele>596</ele>
        <time>2010-11-28T13:32:44Z</time>
      </trkpt>
      <trkpt lat="43.81267" lon="7.23119">
        <ele>596</ele>
        <time>2010-11-28T13:32:47Z</time>
      </trkpt>
      <trkpt lat="43.81276" lon="7.23125">
        <ele>597</ele>
        <time>2010-11-28T13:32:52Z</time>
      </trkpt>
      <trkpt lat="43.81279" lon="7.23138">
        <ele>597</ele>
        <time>2010-11-28T13:32:54Z</time>
      </trkpt>
      <trkpt lat="43.81286" lon="7.23151">
        <ele>597</ele>
        <time>2010-11-28T13:32:57Z</time>
      </trkpt>
      <trkpt lat="43.81297" lon="7.2316">
        <ele>596</ele>
        <time>2010-11-28T13:32:59Z</time>
      </trkpt>
      <trkpt lat="43.81307" lon="7.23163">
        <ele>596</ele>
        <time>2010-11-28T13:33:01Z</time>
      </trkpt>
      <trkpt lat="43.81319" lon="7.23162">
        <ele>597</ele>
        <time>2010-11-28T13:33:02Z</time>
      </trkpt>
      <trkpt lat="43.8133" lon="7.23159">
        <ele>597</ele>
        <time>2010-11-28T13:33:04Z</time>
      </trkpt>
      <trkpt lat="43.81341" lon="7.23154">
        <ele>597</ele>
        <time>2010-11-28T13:33:05Z</time>
      </trkpt>
      <trkpt lat="43.81352" lon="7.23151">
        <ele>596</ele>
        <time>2010-11-28T13:33:07Z</time>
      </trkpt>
      <trkpt lat="43.81363" lon="7.23152">
        <ele>596</ele>
        <time>2010-11-28T13:33:09Z</time>
      </trkpt>
      <trkpt lat="43.81374" lon="7.23155">
        <ele>596</ele>
        <time>2010-11-28T13:33:10Z</time>
      </trkpt>
      <trkpt lat="43.81384" lon="7.23161">
        <ele>595</ele>
        <time>2010-11-28T13:33:12Z</time>
      </trkpt>
      <trkpt lat="43.81395" lon="7.23167">
        <ele>595</ele>
        <time>2010-11-28T13:33:13Z</time>
      </trkpt>
      <trkpt lat="43.81406" lon="7.23173">
        <ele>595</ele>
        <time>2010-11-28T13:33:15Z</time>
      </trkpt>
      <trkpt lat="43.81417" lon="7.23179">
        <ele>595</ele>
        <time>2010-11-28T13:33:16Z</time>
      </trkpt>
      <trkpt lat="43.81429" lon="7.23184">
        <ele>595</ele>
        <time>2010-11-28T13:33:18Z</time>
      </trkpt>
      <trkpt lat="43.8144" lon="7.23189">
        <ele>595</ele>
        <time>2010-11-28T13:33:19Z</time>
      </trkpt>
      <trkpt lat="43.81451" lon="7.23194">
        <ele>594</ele>
        <time>2010-11-28T13:33:21Z</time>
      </trkpt>
      <trkpt lat="43.81462" lon="7.232">
        <ele>594</ele>
        <time>2010-11-28T13:33:22Z</time>
      </trkpt>
      <trkpt lat="43.81472" lon="7.23206">
        <ele>593</ele>
        <time>2010-11-28T13:33:24Z</time>
      </trkpt>
      <trkpt lat="43.81481" lon="7.23218">
        <ele>592</ele>
        <time>2010-11-28T13:33:26Z</time>
      </trkpt>
      <trkpt lat="43.81485" lon="7.23232">
        <ele>592</ele>
        <time>2010-11-28T13:33:29Z</time>
      </trkpt>
      <trkpt lat="43.81488" lon="7.23247">
        <ele>591</ele>
        <time>2010-11-28T13:33:31Z</time>
      </trkpt>
      <trkpt lat="43.81492" lon="7.23261">
        <ele>590</ele>
        <time>2010-11-28T13:33:33Z</time>
      </trkpt>
      <trkpt lat="43.815" lon="7.23271">
        <ele>589</ele>
        <time>2010-11-28T13:33:35Z</time>
      </trkpt>
      <trkpt lat="43.81508" lon="7.23282">
        <ele>588</ele>
        <time>2010-11-28T13:33:38Z</time>
      </trkpt>
      <trkpt lat="43.81516" lon="7.23292">
        <ele>587</ele>
        <time>2010-11-28T13:33:41Z</time>
      </trkpt>
      <trkpt lat="43.81523" lon="7.23302">
        <ele>587</ele>
        <time>2010-11-28T13:33:44Z</time>
      </trkpt>
      <trkpt lat="43.81528" lon="7.23313">
        <ele>586</ele>
        <time>2010-11-28T13:33:47Z</time>
      </trkpt>
      <trkpt lat="43.8153" lon="7.23326">
        <ele>587</ele>
        <time>2010-11-28T13:33:49Z</time>
      </trkpt>
      <trkpt lat="43.8153" lon="7.2334">
        <ele>585</ele>
        <time>2010-11-28T13:33:51Z</time>
      </trkpt>
      <trkpt lat="43.8153" lon="7.23358">
        <ele>584</ele>
        <time>2010-11-28T13:33:53Z</time>
      </trkpt>
      <trkpt lat="43.81531" lon="7.23371">
        <ele>583</ele>
        <time>2010-11-28T13:33:55Z</time>
      </trkpt>
      <trkpt lat="43.81532" lon="7.23378">
        <ele>583</ele>
        <time>2010-11-28T13:33:56Z</time>
      </trkpt>
      <trkpt lat="43.81536" lon="7.2339">
        <ele>582</ele>
        <time>2010-11-28T13:33:57Z</time>
      </trkpt>
      <trkpt lat="43.81541" lon="7.23403">
        <ele>581</ele>
        <time>2010-11-28T13:33:59Z</time>
      </trkpt>
      <trkpt lat="43.81547" lon="7.23415">
        <ele>580</ele>
        <time>2010-11-28T13:34:00Z</time>
      </trkpt>
      <trkpt lat="43.81551" lon="7.23427">
        <ele>579</ele>
        <time>2010-11-28T13:34:02Z</time>
      </trkpt>
      <trkpt lat="43.81557" lon="7.23441">
        <ele>578</ele>
        <time>2010-11-28T13:34:04Z</time>
      </trkpt>
      <trkpt lat="43.81561" lon="7.23454">
        <ele>577</ele>
        <time>2010-11-28T13:34:07Z</time>
      </trkpt>
      <trkpt lat="43.81564" lon="7.23467">
        <ele>576</ele>
        <time>2010-11-28T13:34:09Z</time>
      </trkpt>
      <trkpt lat="43.81567" lon="7.23479">
        <ele>576</ele>
        <time>2010-11-28T13:34:11Z</time>
      </trkpt>
      <trkpt lat="43.81568" lon="7.23492">
        <ele>576</ele>
        <time>2010-11-28T13:34:13Z</time>
      </trkpt>
      <trkpt lat="43.81568" lon="7.23505">
        <ele>575</ele>
        <time>2010-11-28T13:34:16Z</time>
      </trkpt>
      <trkpt lat="43.81568" lon="7.23518">
        <ele>575</ele>
        <time>2010-11-28T13:34:18Z</time>
      </trkpt>
      <trkpt lat="43.81567" lon="7.23532">
        <ele>575</ele>
        <time>2010-11-28T13:34:20Z</time>
      </trkpt>
      <trkpt lat="43.81566" lon="7.23545">
        <ele>574</ele>
        <time>2010-11-28T13:34:22Z</time>
      </trkpt>
      <trkpt lat="43.81563" lon="7.2356">
        <ele>574</ele>
        <time>2010-11-28T13:34:25Z</time>
      </trkpt>
      <trkpt lat="43.81561" lon="7.23575">
        <ele>574</ele>
        <time>2010-11-28T13:34:28Z</time>
      </trkpt>
      <trkpt lat="43.81559" lon="7.23588">
        <ele>574</ele>
        <time>2010-11-28T13:34:30Z</time>
      </trkpt>
      <trkpt lat="43.81561" lon="7.23601">
        <ele>575</ele>
        <time>2010-11-28T13:34:33Z</time>
      </trkpt>
      <trkpt lat="43.81562" lon="7.23613">
        <ele>575</ele>
        <time>2010-11-28T13:34:35Z</time>
      </trkpt>
      <trkpt lat="43.81564" lon="7.23628">
        <ele>575</ele>
        <time>2010-11-28T13:34:37Z</time>
      </trkpt>
      <trkpt lat="43.81566" lon="7.23642">
        <ele>575</ele>
        <time>2010-11-28T13:34:39Z</time>
      </trkpt>
      <trkpt lat="43.81568" lon="7.23656">
        <ele>576</ele>
        <time>2010-11-28T13:34:41Z</time>
      </trkpt>
      <trkpt lat="43.8157" lon="7.2367">
        <ele>576</ele>
        <time>2010-11-28T13:34:44Z</time>
      </trkpt>
      <trkpt lat="43.81572" lon="7.23684">
        <ele>577</ele>
        <time>2010-11-28T13:34:46Z</time>
      </trkpt>
      <trkpt lat="43.81575" lon="7.23699">
        <ele>576</ele>
        <time>2010-11-28T13:34:48Z</time>
      </trkpt>
      <trkpt lat="43.81578" lon="7.23713">
        <ele>577</ele>
        <time>2010-11-28T13:34:50Z</time>
      </trkpt>
      <trkpt lat="43.81577" lon="7.23727">
        <ele>577</ele>
        <time>2010-11-28T13:34:53Z</time>
      </trkpt>
      <trkpt lat="43.81569" lon="7.23736">
        <ele>576</ele>
        <time>2010-11-28T13:34:55Z</time>
      </trkpt>
      <trkpt lat="43.81561" lon="7.23741">
        <ele>576</ele>
        <time>2010-11-28T13:34:57Z</time>
      </trkpt>
      <trkpt lat="43.81551" lon="7.23747">
        <ele>576</ele>
        <time>2010-11-28T13:35:00Z</time>
      </trkpt>
      <trkpt lat="43.81543" lon="7.23752">
        <ele>575</ele>
        <time>2010-11-28T13:35:04Z</time>
      </trkpt>
      <trkpt lat="43.81534" lon="7.23758">
        <ele>573</ele>
        <time>2010-11-28T13:35:09Z</time>
      </trkpt>
      <trkpt lat="43.8153" lon="7.23761">
        <ele>573</ele>
        <time>2010-11-28T13:35:11Z</time>
      </trkpt>
      <trkpt lat="43.81522" lon="7.23768">
        <ele>572</ele>
        <time>2010-11-28T13:35:16Z</time>
      </trkpt>
      <trkpt lat="43.81514" lon="7.23773">
        <ele>573</ele>
        <time>2010-11-28T13:35:21Z</time>
      </trkpt>
      <trkpt lat="43.81505" lon="7.2378">
        <ele>573</ele>
        <time>2010-11-28T13:35:27Z</time>
      </trkpt>
      <trkpt lat="43.81497" lon="7.23787">
        <ele>574</ele>
        <time>2010-11-28T13:35:33Z</time>
      </trkpt>
      <trkpt lat="43.81489" lon="7.23796">
        <ele>574</ele>
        <time>2010-11-28T13:35:38Z</time>
      </trkpt>
      <trkpt lat="43.81483" lon="7.23805">
        <ele>575</ele>
        <time>2010-11-28T13:35:43Z</time>
      </trkpt>
      <trkpt lat="43.81475" lon="7.23813">
        <ele>575</ele>
        <time>2010-11-28T13:35:48Z</time>
      </trkpt>
      <trkpt lat="43.81468" lon="7.2382">
        <ele>576</ele>
        <time>2010-11-28T13:35:54Z</time>
      </trkpt>
      <trkpt lat="43.81459" lon="7.23827">
        <ele>576</ele>
        <time>2010-11-28T13:35:59Z</time>
      </trkpt>
      <trkpt lat="43.81451" lon="7.23833">
        <ele>577</ele>
        <time>2010-11-28T13:36:04Z</time>
      </trkpt>
      <trkpt lat="43.81446" lon="7.23835">
        <ele>577</ele>
        <time>2010-11-28T13:36:07Z</time>
      </trkpt>
      <trkpt lat="43.81437" lon="7.23839">
        <ele>578</ele>
        <time>2010-11-28T13:36:14Z</time>
      </trkpt>
      <trkpt lat="43.81432" lon="7.23841">
        <ele>578</ele>
        <time>2010-11-28T13:36:17Z</time>
      </trkpt>
      <trkpt lat="43.81423" lon="7.23847">
        <ele>577</ele>
        <time>2010-11-28T13:36:23Z</time>
      </trkpt>
      <trkpt lat="43.81414" lon="7.23853">
        <ele>578</ele>
        <time>2010-11-28T13:36:29Z</time>
      </trkpt>
      <trkpt lat="43.81405" lon="7.23859">
        <ele>579</ele>
        <time>2010-11-28T13:36:35Z</time>
      </trkpt>
      <trkpt lat="43.81397" lon="7.23865">
        <ele>580</ele>
        <time>2010-11-28T13:36:40Z</time>
      </trkpt>
      <trkpt lat="43.81388" lon="7.23871">
        <ele>579</ele>
        <time>2010-11-28T13:36:46Z</time>
      </trkpt>
      <trkpt lat="43.81382" lon="7.2388">
        <ele>580</ele>
        <time>2010-11-28T13:36:51Z</time>
      </trkpt>
      <trkpt lat="43.8138" lon="7.23893">
        <ele>580</ele>
        <time>2010-11-28T13:36:55Z</time>
      </trkpt>
      <trkpt lat="43.81381" lon="7.23906">
        <ele>581</ele>
        <time>2010-11-28T13:37:00Z</time>
      </trkpt>
      <trkpt lat="43.81388" lon="7.23915">
        <ele>583</ele>
        <time>2010-11-28T13:37:05Z</time>
      </trkpt>
      <trkpt lat="43.81397" lon="7.23919">
        <ele>585</ele>
        <time>2010-11-28T13:37:12Z</time>
      </trkpt>
      <trkpt lat="43.81405" lon="7.23927">
        <ele>586</ele>
        <time>2010-11-28T13:37:18Z</time>
      </trkpt>
      <trkpt lat="43.81412" lon="7.23938">
        <ele>587</ele>
        <time>2010-11-28T13:37:24Z</time>
      </trkpt>
      <trkpt lat="43.81418" lon="7.23949">
        <ele>589</ele>
        <time>2010-11-28T13:37:28Z</time>
      </trkpt>
      <trkpt lat="43.81425" lon="7.23957">
        <ele>590</ele>
        <time>2010-11-28T13:37:33Z</time>
      </trkpt>
      <trkpt lat="43.81433" lon="7.23964">
        <ele>591</ele>
        <time>2010-11-28T13:37:38Z</time>
      </trkpt>
      <trkpt lat="43.81442" lon="7.23972">
        <ele>592</ele>
        <time>2010-11-28T13:37:44Z</time>
      </trkpt>
      <trkpt lat="43.8145" lon="7.23981">
        <ele>593</ele>
        <time>2010-11-28T13:37:50Z</time>
      </trkpt>
      <trkpt lat="43.81457" lon="7.23991">
        <ele>593</ele>
        <time>2010-11-28T13:37:55Z</time>
      </trkpt>
      <trkpt lat="43.81464" lon="7.24">
        <ele>593</ele>
        <time>2010-11-28T13:38:00Z</time>
      </trkpt>
      <trkpt lat="43.81471" lon="7.24009">
        <ele>593</ele>
        <time>2010-11-28T13:38:04Z</time>
      </trkpt>
      <trkpt lat="43.81478" lon="7.2402">
        <ele>593</ele>
        <time>2010-11-28T13:38:10Z</time>
      </trkpt>
      <trkpt lat="43.81482" lon="7.24031">
        <ele>593</ele>
        <time>2010-11-28T13:38:14Z</time>
      </trkpt>
      <trkpt lat="43.81483" lon="7.24033">
        <ele>594</ele>
        <time>2010-11-28T13:38:15Z</time>
      </trkpt>
      <trkpt lat="43.81487" lon="7.24045">
        <ele>594</ele>
        <time>2010-11-28T13:38:20Z</time>
      </trkpt>
      <trkpt lat="43.81492" lon="7.24058">
        <ele>593</ele>
        <time>2010-11-28T13:38:26Z</time>
      </trkpt>
      <trkpt lat="43.81492" lon="7.24072">
        <ele>596</ele>
        <time>2010-11-28T13:38:32Z</time>
      </trkpt>
      <trkpt lat="43.81491" lon="7.24085">
        <ele>596</ele>
        <time>2010-11-28T13:38:38Z</time>
      </trkpt>
      <trkpt lat="43.81491" lon="7.24095">
        <ele>597</ele>
        <time>2010-11-28T13:38:43Z</time>
      </trkpt>
      <trkpt lat="43.81489" lon="7.24107">
        <ele>598</ele>
        <time>2010-11-28T13:38:48Z</time>
      </trkpt>
      <trkpt lat="43.81487" lon="7.2412">
        <ele>601</ele>
        <time>2010-11-28T13:38:54Z</time>
      </trkpt>
      <trkpt lat="43.81486" lon="7.24133">
        <ele>603</ele>
        <time>2010-11-28T13:39:00Z</time>
      </trkpt>
      <trkpt lat="43.81485" lon="7.24147">
        <ele>605</ele>
        <time>2010-11-28T13:39:06Z</time>
      </trkpt>
      <trkpt lat="43.81485" lon="7.24161">
        <ele>605</ele>
        <time>2010-11-28T13:39:11Z</time>
      </trkpt>
      <trkpt lat="43.81485" lon="7.24174">
        <ele>606</ele>
        <time>2010-11-28T13:39:15Z</time>
      </trkpt>
      <trkpt lat="43.81483" lon="7.24187">
        <ele>607</ele>
        <time>2010-11-28T13:39:20Z</time>
      </trkpt>
      <trkpt lat="43.81482" lon="7.24198">
        <ele>608</ele>
        <time>2010-11-28T13:39:24Z</time>
      </trkpt>
      <trkpt lat="43.81482" lon="7.24211">
        <ele>609</ele>
        <time>2010-11-28T13:39:29Z</time>
      </trkpt>
      <trkpt lat="43.8148" lon="7.24224">
        <ele>610</ele>
        <time>2010-11-28T13:39:34Z</time>
      </trkpt>
      <trkpt lat="43.81478" lon="7.24238">
        <ele>610</ele>
        <time>2010-11-28T13:39:40Z</time>
      </trkpt>
      <trkpt lat="43.81478" lon="7.24251">
        <ele>609</ele>
        <time>2010-11-28T13:39:45Z</time>
      </trkpt>
      <trkpt lat="43.81478" lon="7.24265">
        <ele>612</ele>
        <time>2010-11-28T13:39:51Z</time>
      </trkpt>
      <trkpt lat="43.81477" lon="7.24278">
        <ele>613</ele>
        <time>2010-11-28T13:39:56Z</time>
      </trkpt>
      <trkpt lat="43.81478" lon="7.24291">
        <ele>614</ele>
        <time>2010-11-28T13:40:02Z</time>
      </trkpt>
      <trkpt lat="43.8148" lon="7.24304">
        <ele>614</ele>
        <time>2010-11-28T13:40:08Z</time>
      </trkpt>
      <trkpt lat="43.81471" lon="7.24312">
        <ele>615</ele>
        <time>2010-11-28T13:40:11Z</time>
      </trkpt>
      <trkpt lat="43.81459" lon="7.24316">
        <ele>614</ele>
        <time>2010-11-28T13:40:13Z</time>
      </trkpt>
      <trkpt lat="43.81447" lon="7.24321">
        <ele>614</ele>
        <time>2010-11-28T13:40:15Z</time>
      </trkpt>
      <trkpt lat="43.81435" lon="7.24326">
        <ele>613</ele>
        <time>2010-11-28T13:40:18Z</time>
      </trkpt>
      <trkpt lat="43.81424" lon="7.24332">
        <ele>614</ele>
        <time>2010-11-28T13:40:20Z</time>
      </trkpt>
      <trkpt lat="43.81414" lon="7.24338">
        <ele>613</ele>
        <time>2010-11-28T13:40:22Z</time>
      </trkpt>
      <trkpt lat="43.81405" lon="7.24347">
        <ele>613</ele>
        <time>2010-11-28T13:40:25Z</time>
      </trkpt>
      <trkpt lat="43.81397" lon="7.24357">
        <ele>611</ele>
        <time>2010-11-28T13:40:27Z</time>
      </trkpt>
      <trkpt lat="43.81389" lon="7.24368">
        <ele>611</ele>
        <time>2010-11-28T13:40:29Z</time>
      </trkpt>
      <trkpt lat="43.81381" lon="7.2438">
        <ele>611</ele>
        <time>2010-11-28T13:40:31Z</time>
      </trkpt>
      <trkpt lat="43.81371" lon="7.24392">
        <ele>611</ele>
        <time>2010-11-28T13:40:34Z</time>
      </trkpt>
      <trkpt lat="43.81363" lon="7.24401">
        <ele>611</ele>
        <time>2010-11-28T13:40:35Z</time>
      </trkpt>
      <trkpt lat="43.81355" lon="7.2441">
        <ele>611</ele>
        <time>2010-11-28T13:40:37Z</time>
      </trkpt>
      <trkpt lat="43.81347" lon="7.2442">
        <ele>611</ele>
        <time>2010-11-28T13:40:38Z</time>
      </trkpt>
      <trkpt lat="43.8134" lon="7.24431">
        <ele>610</ele>
        <time>2010-11-28T13:40:40Z</time>
      </trkpt>
      <trkpt lat="43.81333" lon="7.24443">
        <ele>610</ele>
        <time>2010-11-28T13:40:41Z</time>
      </trkpt>
      <trkpt lat="43.81326" lon="7.24455">
        <ele>609</ele>
        <time>2010-11-28T13:40:43Z</time>
      </trkpt>
      <trkpt lat="43.81318" lon="7.24466">
        <ele>609</ele>
        <time>2010-11-28T13:40:44Z</time>
      </trkpt>
      <trkpt lat="43.81311" lon="7.24477">
        <ele>608</ele>
        <time>2010-11-28T13:40:46Z</time>
      </trkpt>
      <trkpt lat="43.81303" lon="7.24489">
        <ele>608</ele>
        <time>2010-11-28T13:40:47Z</time>
      </trkpt>
      <trkpt lat="43.81296" lon="7.24498">
        <ele>608</ele>
        <time>2010-11-28T13:40:49Z</time>
      </trkpt>
      <trkpt lat="43.81287" lon="7.24502">
        <ele>608</ele>
        <time>2010-11-28T13:40:50Z</time>
      </trkpt>
      <trkpt lat="43.81274" lon="7.24499">
        <ele>607</ele>
        <time>2010-11-28T13:40:53Z</time>
      </trkpt>
      <trkpt lat="43.81264" lon="7.24502">
        <ele>607</ele>
        <time>2010-11-28T13:40:55Z</time>
      </trkpt>
      <trkpt lat="43.81258" lon="7.24513">
        <ele>606</ele>
        <time>2010-11-28T13:40:57Z</time>
      </trkpt>
      <trkpt lat="43.8126" lon="7.24526">
        <ele>606</ele>
        <time>2010-11-28T13:41:00Z</time>
      </trkpt>
      <trkpt lat="43.81263" lon="7.24538">
        <ele>606</ele>
        <time>2010-11-28T13:41:02Z</time>
      </trkpt>
      <trkpt lat="43.81264" lon="7.24543">
        <ele>606</ele>
        <time>2010-11-28T13:41:02Z</time>
      </trkpt>
      <trkpt lat="43.81271" lon="7.24556">
        <ele>607</ele>
        <time>2010-11-28T13:41:05Z</time>
      </trkpt>
      <trkpt lat="43.81278" lon="7.2457">
        <ele>608</ele>
        <time>2010-11-28T13:41:07Z</time>
      </trkpt>
      <trkpt lat="43.81283" lon="7.24585">
        <ele>610</ele>
        <time>2010-11-28T13:41:09Z</time>
      </trkpt>
      <trkpt lat="43.81285" lon="7.24601">
        <ele>610</ele>
        <time>2010-11-28T13:41:11Z</time>
      </trkpt>
      <trkpt lat="43.81286" lon="7.24616">
        <ele>611</ele>
        <time>2010-11-28T13:41:14Z</time>
      </trkpt>
      <trkpt lat="43.81285" lon="7.2463">
        <ele>612</ele>
        <time>2010-11-28T13:41:16Z</time>
      </trkpt>
      <trkpt lat="43.81284" lon="7.24644">
        <ele>611</ele>
        <time>2010-11-28T13:41:18Z</time>
      </trkpt>
      <trkpt lat="43.81281" lon="7.24659">
        <ele>611</ele>
        <time>2010-11-28T13:41:20Z</time>
      </trkpt>
      <trkpt lat="43.81273" lon="7.24668">
        <ele>611</ele>
        <time>2010-11-28T13:41:22Z</time>
      </trkpt>
      <trkpt lat="43.81263" lon="7.24675">
        <ele>610</ele>
        <time>2010-11-28T13:41:25Z</time>
      </trkpt>
      <trkpt lat="43.81255" lon="7.24679">
        <ele>610</ele>
        <time>2010-11-28T13:41:26Z</time>
      </trkpt>
      <trkpt lat="43.81244" lon="7.24684">
        <ele>609</ele>
        <time>2010-11-28T13:41:29Z</time>
      </trkpt>
      <trkpt lat="43.81233" lon="7.24687">
        <ele>608</ele>
        <time>2010-11-28T13:41:31Z</time>
      </trkpt>
      <trkpt lat="43.81223" lon="7.2469">
        <ele>607</ele>
        <time>2010-11-28T13:41:33Z</time>
      </trkpt>
      <trkpt lat="43.81212" lon="7.24693">
        <ele>606</ele>
        <time>2010-11-28T13:41:35Z</time>
      </trkpt>
      <trkpt lat="43.81202" lon="7.247">
        <ele>605</ele>
        <time>2010-11-28T13:41:38Z</time>
      </trkpt>
      <trkpt lat="43.81194" lon="7.24709">
        <ele>604</ele>
        <time>2010-11-28T13:41:40Z</time>
      </trkpt>
      <trkpt lat="43.81189" lon="7.2472">
        <ele>604</ele>
        <time>2010-11-28T13:41:42Z</time>
      </trkpt>
      <trkpt lat="43.81187" lon="7.24735">
        <ele>603</ele>
        <time>2010-11-28T13:41:45Z</time>
      </trkpt>
      <trkpt lat="43.81194" lon="7.24748">
        <ele>601</ele>
        <time>2010-11-28T13:41:48Z</time>
      </trkpt>
      <trkpt lat="43.81201" lon="7.24761">
        <ele>600</ele>
        <time>2010-11-28T13:41:50Z</time>
      </trkpt>
      <trkpt lat="43.8121" lon="7.24773">
        <ele>599</ele>
        <time>2010-11-28T13:41:53Z</time>
      </trkpt>
      <trkpt lat="43.81218" lon="7.24783">
        <ele>599</ele>
        <time>2010-11-28T13:41:55Z</time>
      </trkpt>
      <trkpt lat="43.81219" lon="7.24786">
        <ele>599</ele>
        <time>2010-11-28T13:41:56Z</time>
      </trkpt>
      <trkpt lat="43.81223" lon="7.24801">
        <ele>598</ele>
        <time>2010-11-28T13:41:59Z</time>
      </trkpt>
      <trkpt lat="43.81221" lon="7.24815">
        <ele>598</ele>
        <time>2010-11-28T13:42:02Z</time>
      </trkpt>
      <trkpt lat="43.8122" lon="7.24817">
        <ele>598</ele>
        <time>2010-11-28T13:42:03Z</time>
      </trkpt>
      <trkpt lat="43.81215" lon="7.24828">
        <ele>596</ele>
        <time>2010-11-28T13:42:07Z</time>
      </trkpt>
      <trkpt lat="43.8121" lon="7.24838">
        <ele>596</ele>
        <time>2010-11-28T13:42:11Z</time>
      </trkpt>
      <trkpt lat="43.81207" lon="7.24849">
        <ele>594</ele>
        <time>2010-11-28T13:42:15Z</time>
      </trkpt>
      <trkpt lat="43.81208" lon="7.24863">
        <ele>595</ele>
        <time>2010-11-28T13:42:21Z</time>
      </trkpt>
      <trkpt lat="43.81208" lon="7.24878">
        <ele>595</ele>
        <time>2010-11-28T13:42:25Z</time>
      </trkpt>
      <trkpt lat="43.81209" lon="7.2489">
        <ele>594</ele>
        <time>2010-11-28T13:42:29Z</time>
      </trkpt>
      <trkpt lat="43.8121" lon="7.24895">
        <ele>594</ele>
        <time>2010-11-28T13:42:31Z</time>
      </trkpt>
      <trkpt lat="43.81215" lon="7.24905">
        <ele>594</ele>
        <time>2010-11-28T13:42:36Z</time>
      </trkpt>
      <trkpt lat="43.81222" lon="7.24915">
        <ele>594</ele>
        <time>2010-11-28T13:42:43Z</time>
      </trkpt>
      <trkpt lat="43.81223" lon="7.24917">
        <ele>594</ele>
        <time>2010-11-28T13:42:44Z</time>
      </trkpt>
      <trkpt lat="43.8123" lon="7.24926">
        <ele>594</ele>
        <time>2010-11-28T13:42:50Z</time>
      </trkpt>
      <trkpt lat="43.81235" lon="7.24938">
        <ele>594</ele>
        <time>2010-11-28T13:42:55Z</time>
      </trkpt>
      <trkpt lat="43.81238" lon="7.24951">
        <ele>596</ele>
        <time>2010-11-28T13:43:00Z</time>
      </trkpt>
      <trkpt lat="43.81239" lon="7.24961">
        <ele>597</ele>
        <time>2010-11-28T13:43:04Z</time>
      </trkpt>
      <trkpt lat="43.81241" lon="7.24974">
        <ele>598</ele>
        <time>2010-11-28T13:43:10Z</time>
      </trkpt>
      <trkpt lat="43.81247" lon="7.24986">
        <ele>599</ele>
        <time>2010-11-28T13:43:17Z</time>
      </trkpt>
      <trkpt lat="43.81248" lon="7.24988">
        <ele>599</ele>
        <time>2010-11-28T13:43:19Z</time>
      </trkpt>
      <trkpt lat="43.81256" lon="7.24997">
        <ele>599</ele>
        <time>2010-11-28T13:43:24Z</time>
      </trkpt>
      <trkpt lat="43.81263" lon="7.25005">
        <ele>600</ele>
        <time>2010-11-28T13:43:29Z</time>
      </trkpt>
      <trkpt lat="43.81266" lon="7.25017">
        <ele>600</ele>
        <time>2010-11-28T13:43:35Z</time>
      </trkpt>
      <trkpt lat="43.81267" lon="7.2503">
        <ele>601</ele>
        <time>2010-11-28T13:43:39Z</time>
      </trkpt>
      <trkpt lat="43.81265" lon="7.25044">
        <ele>602</ele>
        <time>2010-11-28T13:43:45Z</time>
      </trkpt>
      <trkpt lat="43.81263" lon="7.25056">
        <ele>603</ele>
        <time>2010-11-28T13:43:50Z</time>
      </trkpt>
      <trkpt lat="43.81261" lon="7.25068">
        <ele>604</ele>
        <time>2010-11-28T13:43:57Z</time>
      </trkpt>
      <trkpt lat="43.81259" lon="7.25081">
        <ele>606</ele>
        <time>2010-11-28T13:44:03Z</time>
      </trkpt>
      <trkpt lat="43.81262" lon="7.25093">
        <ele>606</ele>
        <time>2010-11-28T13:44:11Z</time>
      </trkpt>
      <trkpt lat="43.81269" lon="7.25102">
        <ele>607</ele>
        <time>2010-11-28T13:44:19Z</time>
      </trkpt>
      <trkpt lat="43.81278" lon="7.25106">
        <ele>608</ele>
        <time>2010-11-28T13:44:25Z</time>
      </trkpt>
      <trkpt lat="43.81287" lon="7.25107">
        <ele>609</ele>
        <time>2010-11-28T13:44:31Z</time>
      </trkpt>
      <trkpt lat="43.81296" lon="7.25109">
        <ele>610</ele>
        <time>2010-11-28T13:44:37Z</time>
      </trkpt>
      <trkpt lat="43.81299" lon="7.2511">
        <ele>611</ele>
        <time>2010-11-28T13:44:38Z</time>
      </trkpt>
      <trkpt lat="43.81309" lon="7.25112">
        <ele>611</ele>
        <time>2010-11-28T13:44:43Z</time>
      </trkpt>
      <trkpt lat="43.8131" lon="7.25113">
        <ele>611</ele>
        <time>2010-11-28T13:44:44Z</time>
      </trkpt>
      <trkpt lat="43.81318" lon="7.25118">
        <ele>611</ele>
        <time>2010-11-28T13:44:50Z</time>
      </trkpt>
      <trkpt lat="43.81326" lon="7.25128">
        <ele>611</ele>
        <time>2010-11-28T13:44:55Z</time>
      </trkpt>
      <trkpt lat="43.8133" lon="7.2514">
        <ele>613</ele>
        <time>2010-11-28T13:45:00Z</time>
      </trkpt>
      <trkpt lat="43.81332" lon="7.25154">
        <ele>614</ele>
        <time>2010-11-28T13:45:06Z</time>
      </trkpt>
      <trkpt lat="43.81333" lon="7.25168">
        <ele>616</ele>
        <time>2010-11-28T13:45:11Z</time>
      </trkpt>
      <trkpt lat="43.81333" lon="7.2518">
        <ele>616</ele>
        <time>2010-11-28T13:45:16Z</time>
      </trkpt>
      <trkpt lat="43.81336" lon="7.25191">
        <ele>617</ele>
        <time>2010-11-28T13:45:22Z</time>
      </trkpt>
      <trkpt lat="43.81344" lon="7.25196">
        <ele>619</ele>
        <time>2010-11-28T13:45:28Z</time>
      </trkpt>
      <trkpt lat="43.81354" lon="7.25192">
        <ele>621</ele>
        <time>2010-11-28T13:45:34Z</time>
      </trkpt>
      <trkpt lat="43.81363" lon="7.25186">
        <ele>622</ele>
        <time>2010-11-28T13:45:39Z</time>
      </trkpt>
      <trkpt lat="43.81373" lon="7.25182">
        <ele>624</ele>
        <time>2010-11-28T13:45:45Z</time>
      </trkpt>
      <trkpt lat="43.81378" lon="7.25181">
        <ele>625</ele>
        <time>2010-11-28T13:45:47Z</time>
      </trkpt>
      <trkpt lat="43.81387" lon="7.25178">
        <ele>626</ele>
        <time>2010-11-28T13:45:52Z</time>
      </trkpt>
      <trkpt lat="43.81396" lon="7.25176">
        <ele>626</ele>
        <time>2010-11-28T13:45:57Z</time>
      </trkpt>
      <trkpt lat="43.81406" lon="7.25176">
        <ele>627</ele>
        <time>2010-11-28T13:46:02Z</time>
      </trkpt>
      <trkpt lat="43.81413" lon="7.25173">
        <ele>627</ele>
        <time>2010-11-28T13:46:06Z</time>
      </trkpt>
      <trkpt lat="43.81422" lon="7.25169">
        <ele>628</ele>
        <time>2010-11-28T13:46:12Z</time>
      </trkpt>
      <trkpt lat="43.81431" lon="7.25167">
        <ele>628</ele>
        <time>2010-11-28T13:46:17Z</time>
      </trkpt>
      <trkpt lat="43.81442" lon="7.25167">
        <ele>628</ele>
        <time>2010-11-28T13:46:23Z</time>
      </trkpt>
      <trkpt lat="43.81447" lon="7.25167">
        <ele>629</ele>
        <time>2010-11-28T13:46:26Z</time>
      </trkpt>
      <trkpt lat="43.81457" lon="7.25167">
        <ele>630</ele>
        <time>2010-11-28T13:46:31Z</time>
      </trkpt>
      <trkpt lat="43.81466" lon="7.25166">
        <ele>630</ele>
        <time>2010-11-28T13:46:36Z</time>
      </trkpt>
      <trkpt lat="43.81476" lon="7.25167">
        <ele>631</ele>
        <time>2010-11-28T13:46:42Z</time>
      </trkpt>
      <trkpt lat="43.81477" lon="7.25167">
        <ele>631</ele>
        <time>2010-11-28T13:46:42Z</time>
      </trkpt>
      <trkpt lat="43.81486" lon="7.2517">
        <ele>631</ele>
        <time>2010-11-28T13:46:48Z</time>
      </trkpt>
      <trkpt lat="43.81494" lon="7.25178">
        <ele>632</ele>
        <time>2010-11-28T13:46:53Z</time>
      </trkpt>
      <trkpt lat="43.81501" lon="7.25186">
        <ele>632</ele>
        <time>2010-11-28T13:46:59Z</time>
      </trkpt>
      <trkpt lat="43.81509" lon="7.25191">
        <ele>633</ele>
        <time>2010-11-28T13:47:04Z</time>
      </trkpt>
      <trkpt lat="43.81518" lon="7.25197">
        <ele>634</ele>
        <time>2010-11-28T13:47:10Z</time>
      </trkpt>
      <trkpt lat="43.81526" lon="7.25203">
        <ele>635</ele>
        <time>2010-11-28T13:47:16Z</time>
      </trkpt>
      <trkpt lat="43.81534" lon="7.25208">
        <ele>636</ele>
        <time>2010-11-28T13:47:22Z</time>
      </trkpt>
      <trkpt lat="43.81544" lon="7.25212">
        <ele>636</ele>
        <time>2010-11-28T13:47:29Z</time>
      </trkpt>
      <trkpt lat="43.81548" lon="7.25213">
        <ele>636</ele>
        <time>2010-11-28T13:47:32Z</time>
      </trkpt>
      <trkpt lat="43.81557" lon="7.25218">
        <ele>637</ele>
        <time>2010-11-28T13:47:39Z</time>
      </trkpt>
      <trkpt lat="43.81566" lon="7.25223">
        <ele>638</ele>
        <time>2010-11-28T13:47:45Z</time>
      </trkpt>
      <trkpt lat="43.81574" lon="7.25229">
        <ele>639</ele>
        <time>2010-11-28T13:47:52Z</time>
      </trkpt>
      <trkpt lat="43.81583" lon="7.25235">
        <ele>640</ele>
        <time>2010-11-28T13:47:59Z</time>
      </trkpt>
      <trkpt lat="43.81587" lon="7.25239">
        <ele>640</ele>
        <time>2010-11-28T13:48:02Z</time>
      </trkpt>
      <trkpt lat="43.81594" lon="7.25247">
        <ele>640</ele>
        <time>2010-11-28T13:48:08Z</time>
      </trkpt>
      <trkpt lat="43.81602" lon="7.25255">
        <ele>640</ele>
        <time>2010-11-28T13:48:14Z</time>
      </trkpt>
      <trkpt lat="43.81605" lon="7.25257">
        <ele>640</ele>
        <time>2010-11-28T13:48:17Z</time>
      </trkpt>
      <trkpt lat="43.81613" lon="7.25263">
        <ele>641</ele>
        <time>2010-11-28T13:48:23Z</time>
      </trkpt>
      <trkpt lat="43.81621" lon="7.25269">
        <ele>642</ele>
        <time>2010-11-28T13:48:29Z</time>
      </trkpt>
      <trkpt lat="43.81628" lon="7.25279">
        <ele>645</ele>
        <time>2010-11-28T13:48:36Z</time>
      </trkpt>
      <trkpt lat="43.81629" lon="7.2528">
        <ele>645</ele>
        <time>2010-11-28T13:48:37Z</time>
      </trkpt>
      <trkpt lat="43.81632" lon="7.25279">
        <ele>634</ele>
        <time>2010-11-28T13:49:52Z</time>
      </trkpt>
      <trkpt lat="43.81632" lon="7.25279">
        <ele>634</ele>
        <time>2010-11-28T13:49:52Z</time>
      </trkpt>
      <trkpt lat="43.81632" lon="7.25279">
        <ele>634</ele>
        <time>2010-11-28T13:49:53Z</time>
      </trkpt>
      <trkpt lat="43.81632" lon="7.25279">
        <ele>634</ele>
        <time>2010-11-28T13:49:55Z</time>
      </trkpt>
      <trkpt lat="43.81631" lon="7.25278">
        <ele>646</ele>
        <time>2010-11-28T13:50:23Z</time>
      </trkpt>
      <trkpt lat="43.8163" lon="7.25291">
        <ele>646</ele>
        <time>2010-11-28T13:50:48Z</time>
      </trkpt>
      <trkpt lat="43.81635" lon="7.25303">
        <ele>646</ele>
        <time>2010-11-28T13:50:54Z</time>
      </trkpt>
      <trkpt lat="43.81641" lon="7.25314">
        <ele>647</ele>
        <time>2010-11-28T13:51:00Z</time>
      </trkpt>
      <trkpt lat="43.81641" lon="7.25315">
        <ele>647</ele>
        <time>2010-11-28T13:51:01Z</time>
      </trkpt>
      <trkpt lat="43.81646" lon="7.25326">
        <ele>647</ele>
        <time>2010-11-28T13:51:07Z</time>
      </trkpt>
      <trkpt lat="43.81651" lon="7.25338">
        <ele>647</ele>
        <time>2010-11-28T13:51:12Z</time>
      </trkpt>
      <trkpt lat="43.81653" lon="7.25342">
        <ele>647</ele>
        <time>2010-11-28T13:51:14Z</time>
      </trkpt>
      <trkpt lat="43.81658" lon="7.25355">
        <ele>647</ele>
        <time>2010-11-28T13:51:21Z</time>
      </trkpt>
      <trkpt lat="43.81661" lon="7.25364">
        <ele>648</ele>
        <time>2010-11-28T13:51:25Z</time>
      </trkpt>
      <trkpt lat="43.81665" lon="7.25376">
        <ele>649</ele>
        <time>2010-11-28T13:51:31Z</time>
      </trkpt>
      <trkpt lat="43.8167" lon="7.25387">
        <ele>650</ele>
        <time>2010-11-28T13:51:37Z</time>
      </trkpt>
      <trkpt lat="43.81675" lon="7.25398">
        <ele>650</ele>
        <time>2010-11-28T13:51:42Z</time>
      </trkpt>
      <trkpt lat="43.81681" lon="7.25408">
        <ele>650</ele>
        <time>2010-11-28T13:51:47Z</time>
      </trkpt>
      <trkpt lat="43.81687" lon="7.25418">
        <ele>652</ele>
        <time>2010-11-28T13:51:53Z</time>
      </trkpt>
      <trkpt lat="43.81693" lon="7.25427">
        <ele>653</ele>
        <time>2010-11-28T13:51:58Z</time>
      </trkpt>
      <trkpt lat="43.81699" lon="7.25438">
        <ele>654</ele>
        <time>2010-11-28T13:52:04Z</time>
      </trkpt>
      <trkpt lat="43.81705" lon="7.25449">
        <ele>655</ele>
        <time>2010-11-28T13:52:11Z</time>
      </trkpt>
      <trkpt lat="43.81697" lon="7.25456">
        <ele>658</ele>
        <time>2010-11-28T13:52:26Z</time>
      </trkpt>
      <trkpt lat="43.8169" lon="7.2545">
        <ele>658</ele>
        <time>2010-11-28T13:52:31Z</time>
      </trkpt>
      <trkpt lat="43.81682" lon="7.25442">
        <ele>659</ele>
        <time>2010-11-28T13:52:38Z</time>
      </trkpt>
      <trkpt lat="43.81674" lon="7.25435">
        <ele>661</ele>
        <time>2010-11-28T13:52:45Z</time>
      </trkpt>
      <trkpt lat="43.81666" lon="7.25428">
        <ele>663</ele>
        <time>2010-11-28T13:52:53Z</time>
      </trkpt>
      <trkpt lat="43.81658" lon="7.25421">
        <ele>664</ele>
        <time>2010-11-28T13:53:01Z</time>
      </trkpt>
      <trkpt lat="43.81653" lon="7.25415">
        <ele>665</ele>
        <time>2010-11-28T13:53:08Z</time>
      </trkpt>
      <trkpt lat="43.81646" lon="7.25407">
        <ele>666</ele>
        <time>2010-11-28T13:53:19Z</time>
      </trkpt>
      <trkpt lat="43.81638" lon="7.25399">
        <ele>668</ele>
        <time>2010-11-28T13:53:30Z</time>
      </trkpt>
      <trkpt lat="43.8163" lon="7.25393">
        <ele>670</ele>
        <time>2010-11-28T13:53:39Z</time>
      </trkpt>
      <trkpt lat="43.81622" lon="7.25386">
        <ele>672</ele>
        <time>2010-11-28T13:53:47Z</time>
      </trkpt>
      <trkpt lat="43.81614" lon="7.25379">
        <ele>674</ele>
        <time>2010-11-28T13:53:56Z</time>
      </trkpt>
      <trkpt lat="43.81611" lon="7.25376">
        <ele>674</ele>
        <time>2010-11-28T13:54:02Z</time>
      </trkpt>
      <trkpt lat="43.81604" lon="7.25368">
        <ele>675</ele>
        <time>2010-11-28T13:54:17Z</time>
      </trkpt>
      <trkpt lat="43.81603" lon="7.25368">
        <ele>675</ele>
        <time>2010-11-28T13:54:18Z</time>
      </trkpt>
      <trkpt lat="43.81595" lon="7.25361">
        <ele>678</ele>
        <time>2010-11-28T13:54:35Z</time>
      </trkpt>
      <trkpt lat="43.81586" lon="7.25357">
        <ele>682</ele>
        <time>2010-11-28T13:54:53Z</time>
      </trkpt>
      <trkpt lat="43.81578" lon="7.25353">
        <ele>683</ele>
        <time>2010-11-28T13:55:12Z</time>
      </trkpt>
      <trkpt lat="43.81575" lon="7.25349">
        <ele>685</ele>
        <time>2010-11-28T13:55:19Z</time>
      </trkpt>
      <trkpt lat="43.8157" lon="7.25339">
        <ele>688</ele>
        <time>2010-11-28T13:55:36Z</time>
      </trkpt>
      <trkpt lat="43.8156" lon="7.25338">
        <ele>691</ele>
        <time>2010-11-28T13:55:51Z</time>
      </trkpt>
      <trkpt lat="43.81557" lon="7.25338">
        <ele>692</ele>
        <time>2010-11-28T13:55:55Z</time>
      </trkpt>
      <trkpt lat="43.81548" lon="7.25334">
        <ele>693</ele>
        <time>2010-11-28T13:56:08Z</time>
      </trkpt>
      <trkpt lat="43.81547" lon="7.25334">
        <ele>693</ele>
        <time>2010-11-28T13:56:10Z</time>
      </trkpt>
      <trkpt lat="43.81538" lon="7.25337">
        <ele>694</ele>
        <time>2010-11-28T13:56:17Z</time>
      </trkpt>
      <trkpt lat="43.81528" lon="7.25342">
        <ele>696</ele>
        <time>2010-11-28T13:56:25Z</time>
      </trkpt>
      <trkpt lat="43.8152" lon="7.25349">
        <ele>698</ele>
        <time>2010-11-28T13:56:33Z</time>
      </trkpt>
      <trkpt lat="43.81512" lon="7.25355">
        <ele>699</ele>
        <time>2010-11-28T13:56:47Z</time>
      </trkpt>
      <trkpt lat="43.81503" lon="7.25359">
        <ele>701</ele>
        <time>2010-11-28T13:57:01Z</time>
      </trkpt>
      <trkpt lat="43.81494" lon="7.25364">
        <ele>703</ele>
        <time>2010-11-28T13:57:14Z</time>
      </trkpt>
      <trkpt lat="43.81486" lon="7.2537">
        <ele>704</ele>
        <time>2010-11-28T13:57:27Z</time>
      </trkpt>
      <trkpt lat="43.81477" lon="7.25374">
        <ele>708</ele>
        <time>2010-11-28T13:57:45Z</time>
      </trkpt>
      <trkpt lat="43.81468" lon="7.25377">
        <ele>711</ele>
        <time>2010-11-28T13:58:00Z</time>
      </trkpt>
      <trkpt lat="43.8146" lon="7.25381">
        <ele>714</ele>
        <time>2010-11-28T13:58:12Z</time>
      </trkpt>
      <trkpt lat="43.81451" lon="7.25385">
        <ele>716</ele>
        <time>2010-11-28T13:58:24Z</time>
      </trkpt>
      <trkpt lat="43.81442" lon="7.25388">
        <ele>719</ele>
        <time>2010-11-28T13:58:36Z</time>
      </trkpt>
      <trkpt lat="43.81432" lon="7.25392">
        <ele>720</ele>
        <time>2010-11-28T13:58:44Z</time>
      </trkpt>
      <trkpt lat="43.81422" lon="7.25392">
        <ele>721</ele>
        <time>2010-11-28T13:58:48Z</time>
      </trkpt>
      <trkpt lat="43.8141" lon="7.25391">
        <ele>721</ele>
        <time>2010-11-28T13:58:51Z</time>
      </trkpt>
      <trkpt lat="43.81398" lon="7.2539">
        <ele>721</ele>
        <time>2010-11-28T13:58:53Z</time>
      </trkpt>
      <trkpt lat="43.81385" lon="7.25388">
        <ele>722</ele>
        <time>2010-11-28T13:58:55Z</time>
      </trkpt>
      <trkpt lat="43.81376" lon="7.25387">
        <ele>722</ele>
        <time>2010-11-28T13:58:57Z</time>
      </trkpt>
      <trkpt lat="43.81363" lon="7.25385">
        <ele>723</ele>
        <time>2010-11-28T13:58:59Z</time>
      </trkpt>
      <trkpt lat="43.81356" lon="7.25383">
        <ele>723</ele>
        <time>2010-11-28T13:59:01Z</time>
      </trkpt>
      <trkpt lat="43.81345" lon="7.25381">
        <ele>723</ele>
        <time>2010-11-28T13:59:03Z</time>
      </trkpt>
      <trkpt lat="43.81334" lon="7.25377">
        <ele>723</ele>
        <time>2010-11-28T13:59:05Z</time>
      </trkpt>
      <trkpt lat="43.81324" lon="7.25373">
        <ele>723</ele>
        <time>2010-11-28T13:59:08Z</time>
      </trkpt>
      <trkpt lat="43.81314" lon="7.25371">
        <ele>723</ele>
        <time>2010-11-28T13:59:11Z</time>
      </trkpt>
      <trkpt lat="43.81305" lon="7.25371">
        <ele>723</ele>
        <time>2010-11-28T13:59:18Z</time>
      </trkpt>
      <trkpt lat="43.81295" lon="7.25369">
        <ele>723</ele>
        <time>2010-11-28T13:59:26Z</time>
      </trkpt>
      <trkpt lat="43.81286" lon="7.25366">
        <ele>724</ele>
        <time>2010-11-28T13:59:33Z</time>
      </trkpt>
      <trkpt lat="43.81285" lon="7.25365">
        <ele>724</ele>
        <time>2010-11-28T13:59:34Z</time>
      </trkpt>
      <trkpt lat="43.81277" lon="7.2536">
        <ele>724</ele>
        <time>2010-11-28T13:59:41Z</time>
      </trkpt>
      <trkpt lat="43.81271" lon="7.25357">
        <ele>725</ele>
        <time>2010-11-28T13:59:45Z</time>
      </trkpt>
      <trkpt lat="43.81262" lon="7.25355">
        <ele>726</ele>
        <time>2010-11-28T13:59:53Z</time>
      </trkpt>
      <trkpt lat="43.81255" lon="7.25352">
        <ele>727</ele>
        <time>2010-11-28T13:59:59Z</time>
      </trkpt>
      <trkpt lat="43.81248" lon="7.25345">
        <ele>726</ele>
        <time>2010-11-28T14:00:08Z</time>
      </trkpt>
      <trkpt lat="43.8124" lon="7.25341">
        <ele>728</ele>
        <time>2010-11-28T14:00:17Z</time>
      </trkpt>
      <trkpt lat="43.81231" lon="7.2534">
        <ele>731</ele>
        <time>2010-11-28T14:00:31Z</time>
      </trkpt>
      <trkpt lat="43.81231" lon="7.2534">
        <ele>731</ele>
        <time>2010-11-28T14:00:34Z</time>
      </trkpt>
      <trkpt lat="43.81221" lon="7.25334">
        <ele>736</ele>
        <time>2010-11-28T14:01:24Z</time>
      </trkpt>
      <trkpt lat="43.81221" lon="7.25334">
        <ele>736</ele>
        <time>2010-11-28T14:01:26Z</time>
      </trkpt>
      <trkpt lat="43.81212" lon="7.2533">
        <ele>737</ele>
        <time>2010-11-28T14:01:34Z</time>
      </trkpt>
      <trkpt lat="43.81208" lon="7.2533">
        <ele>737</ele>
        <time>2010-11-28T14:01:37Z</time>
      </trkpt>
      <trkpt lat="43.81198" lon="7.25329">
        <ele>738</ele>
        <time>2010-11-28T14:01:45Z</time>
      </trkpt>
      <trkpt lat="43.81189" lon="7.25327">
        <ele>738</ele>
        <time>2010-11-28T14:01:54Z</time>
      </trkpt>
      <trkpt lat="43.81187" lon="7.25327">
        <ele>739</ele>
        <time>2010-11-28T14:01:56Z</time>
      </trkpt>
      <trkpt lat="43.81179" lon="7.25322">
        <ele>739</ele>
        <time>2010-11-28T14:02:04Z</time>
      </trkpt>
      <trkpt lat="43.8117" lon="7.25318">
        <ele>740</ele>
        <time>2010-11-28T14:02:13Z</time>
      </trkpt>
      <trkpt lat="43.81169" lon="7.25318">
        <ele>740</ele>
        <time>2010-11-28T14:02:13Z</time>
      </trkpt>
      <trkpt lat="43.8116" lon="7.25311">
        <ele>741</ele>
        <time>2010-11-28T14:02:22Z</time>
      </trkpt>
      <trkpt lat="43.81152" lon="7.25306">
        <ele>742</ele>
        <time>2010-11-28T14:02:30Z</time>
      </trkpt>
      <trkpt lat="43.81151" lon="7.25305">
        <ele>742</ele>
        <time>2010-11-28T14:02:31Z</time>
      </trkpt>
      <trkpt lat="43.81143" lon="7.25298">
        <ele>743</ele>
        <time>2010-11-28T14:02:39Z</time>
      </trkpt>
      <trkpt lat="43.81136" lon="7.25291">
        <ele>743</ele>
        <time>2010-11-28T14:02:48Z</time>
      </trkpt>
      <trkpt lat="43.81135" lon="7.2529">
        <ele>744</ele>
        <time>2010-11-28T14:02:49Z</time>
      </trkpt>
      <trkpt lat="43.81126" lon="7.25287">
        <ele>745</ele>
        <time>2010-11-28T14:02:58Z</time>
      </trkpt>
      <trkpt lat="43.81122" lon="7.25286">
        <ele>746</ele>
        <time>2010-11-28T14:03:02Z</time>
      </trkpt>
      <trkpt lat="43.81114" lon="7.25282">
        <ele>746</ele>
        <time>2010-11-28T14:03:10Z</time>
      </trkpt>
      <trkpt lat="43.81105" lon="7.25276">
        <ele>748</ele>
        <time>2010-11-28T14:03:18Z</time>
      </trkpt>
      <trkpt lat="43.81098" lon="7.25268">
        <ele>750</ele>
        <time>2010-11-28T14:03:27Z</time>
      </trkpt>
      <trkpt lat="43.81091" lon="7.25259">
        <ele>751</ele>
        <time>2010-11-28T14:03:36Z</time>
      </trkpt>
      <trkpt lat="43.81082" lon="7.25254">
        <ele>752</ele>
        <time>2010-11-28T14:03:45Z</time>
      </trkpt>
      <trkpt lat="43.81074" lon="7.25248">
        <ele>753</ele>
        <time>2010-11-28T14:03:54Z</time>
      </trkpt>
      <trkpt lat="43.81071" lon="7.25246">
        <ele>754</ele>
        <time>2010-11-28T14:03:59Z</time>
      </trkpt>
      <trkpt lat="43.81062" lon="7.2524">
        <ele>756</ele>
        <time>2010-11-28T14:04:09Z</time>
      </trkpt>
      <trkpt lat="43.81055" lon="7.25232">
        <ele>756</ele>
        <time>2010-11-28T14:04:20Z</time>
      </trkpt>
      <trkpt lat="43.8105" lon="7.25227">
        <ele>758</ele>
        <time>2010-11-28T14:04:26Z</time>
      </trkpt>
      <trkpt lat="43.81044" lon="7.25218">
        <ele>762</ele>
        <time>2010-11-28T14:05:02Z</time>
      </trkpt>
      <trkpt lat="43.81038" lon="7.25208">
        <ele>765</ele>
        <time>2010-11-28T14:05:08Z</time>
      </trkpt>
      <trkpt lat="43.8103" lon="7.25198">
        <ele>766</ele>
        <time>2010-11-28T14:05:14Z</time>
      </trkpt>
      <trkpt lat="43.81024" lon="7.25188">
        <ele>766</ele>
        <time>2010-11-28T14:05:20Z</time>
      </trkpt>
      <trkpt lat="43.81016" lon="7.25179">
        <ele>767</ele>
        <time>2010-11-28T14:05:25Z</time>
      </trkpt>
      <trkpt lat="43.81008" lon="7.25172">
        <ele>768</ele>
        <time>2010-11-28T14:05:31Z</time>
      </trkpt>
      <trkpt lat="43.81001" lon="7.25164">
        <ele>769</ele>
        <time>2010-11-28T14:05:35Z</time>
      </trkpt>
      <trkpt lat="43.80994" lon="7.25155">
        <ele>769</ele>
        <time>2010-11-28T14:05:40Z</time>
      </trkpt>
      <trkpt lat="43.80987" lon="7.25144">
        <ele>770</ele>
        <time>2010-11-28T14:05:45Z</time>
      </trkpt>
      <trkpt lat="43.80982" lon="7.25133">
        <ele>771</ele>
        <time>2010-11-28T14:05:50Z</time>
      </trkpt>
      <trkpt lat="43.80975" lon="7.25123">
        <ele>772</ele>
        <time>2010-11-28T14:05:54Z</time>
      </trkpt>
      <trkpt lat="43.80968" lon="7.25115">
        <ele>772</ele>
        <time>2010-11-28T14:05:59Z</time>
      </trkpt>
      <trkpt lat="43.8096" lon="7.25108">
        <ele>773</ele>
        <time>2010-11-28T14:06:04Z</time>
      </trkpt>
      <trkpt lat="43.80953" lon="7.25101">
        <ele>773</ele>
        <time>2010-11-28T14:06:10Z</time>
      </trkpt>
      <trkpt lat="43.80944" lon="7.25095">
        <ele>773</ele>
        <time>2010-11-28T14:06:17Z</time>
      </trkpt>
      <trkpt lat="43.80943" lon="7.25094">
        <ele>774</ele>
        <time>2010-11-28T14:06:18Z</time>
      </trkpt>
      <trkpt lat="43.80934" lon="7.25088">
        <ele>775</ele>
        <time>2010-11-28T14:06:24Z</time>
      </trkpt>
      <trkpt lat="43.80926" lon="7.25082">
        <ele>777</ele>
        <time>2010-11-28T14:06:31Z</time>
      </trkpt>
      <trkpt lat="43.80922" lon="7.2508">
        <ele>778</ele>
        <time>2010-11-28T14:06:34Z</time>
      </trkpt>
      <trkpt lat="43.80913" lon="7.25077">
        <ele>778</ele>
        <time>2010-11-28T14:06:40Z</time>
      </trkpt>
      <trkpt lat="43.80903" lon="7.25075">
        <ele>779</ele>
        <time>2010-11-28T14:06:46Z</time>
      </trkpt>
      <trkpt lat="43.80901" lon="7.25074">
        <ele>779</ele>
        <time>2010-11-28T14:06:48Z</time>
      </trkpt>
      <trkpt lat="43.80891" lon="7.25071">
        <ele>780</ele>
        <time>2010-11-28T14:06:54Z</time>
      </trkpt>
      <trkpt lat="43.80882" lon="7.2507">
        <ele>781</ele>
        <time>2010-11-28T14:06:59Z</time>
      </trkpt>
      <trkpt lat="43.80873" lon="7.25068">
        <ele>782</ele>
        <time>2010-11-28T14:07:05Z</time>
      </trkpt>
      <trkpt lat="43.80864" lon="7.25063">
        <ele>782</ele>
        <time>2010-11-28T14:07:11Z</time>
      </trkpt>
      <trkpt lat="43.80855" lon="7.25059">
        <ele>783</ele>
        <time>2010-11-28T14:07:17Z</time>
      </trkpt>
      <trkpt lat="43.80847" lon="7.25051">
        <ele>783</ele>
        <time>2010-11-28T14:07:29Z</time>
      </trkpt>
      <trkpt lat="43.8084" lon="7.25043">
        <ele>785</ele>
        <time>2010-11-28T14:07:43Z</time>
      </trkpt>
      <trkpt lat="43.80831" lon="7.25045">
        <ele>785</ele>
        <time>2010-11-28T14:07:53Z</time>
      </trkpt>
      <trkpt lat="43.80829" lon="7.25058">
        <ele>785</ele>
        <time>2010-11-28T14:08:00Z</time>
      </trkpt>
      <trkpt lat="43.80828" lon="7.25059">
        <ele>786</ele>
        <time>2010-11-28T14:08:01Z</time>
      </trkpt>
      <trkpt lat="43.80822" lon="7.25069">
        <ele>787</ele>
        <time>2010-11-28T14:08:09Z</time>
      </trkpt>
      <trkpt lat="43.80816" lon="7.25079">
        <ele>790</ele>
        <time>2010-11-28T14:08:16Z</time>
      </trkpt>
      <trkpt lat="43.80809" lon="7.25088">
        <ele>792</ele>
        <time>2010-11-28T14:08:23Z</time>
      </trkpt>
      <trkpt lat="43.80801" lon="7.25095">
        <ele>793</ele>
        <time>2010-11-28T14:08:30Z</time>
      </trkpt>
      <trkpt lat="43.80792" lon="7.25101">
        <ele>793</ele>
        <time>2010-11-28T14:08:36Z</time>
      </trkpt>
      <trkpt lat="43.80783" lon="7.25106">
        <ele>793</ele>
        <time>2010-11-28T14:08:42Z</time>
      </trkpt>
      <trkpt lat="43.80773" lon="7.25112">
        <ele>793</ele>
        <time>2010-11-28T14:08:47Z</time>
      </trkpt>
      <trkpt lat="43.80763" lon="7.25115">
        <ele>793</ele>
        <time>2010-11-28T14:08:49Z</time>
      </trkpt>
      <trkpt lat="43.80752" lon="7.25116">
        <ele>794</ele>
        <time>2010-11-28T14:08:53Z</time>
      </trkpt>
      <trkpt lat="43.80742" lon="7.25115">
        <ele>794</ele>
        <time>2010-11-28T14:08:55Z</time>
      </trkpt>
      <trkpt lat="43.8073" lon="7.25113">
        <ele>794</ele>
        <time>2010-11-28T14:08:57Z</time>
      </trkpt>
      <trkpt lat="43.80717" lon="7.2511">
        <ele>794</ele>
        <time>2010-11-28T14:08:59Z</time>
      </trkpt>
      <trkpt lat="43.80705" lon="7.25107">
        <ele>795</ele>
        <time>2010-11-28T14:09:02Z</time>
      </trkpt>
      <trkpt lat="43.80695" lon="7.25104">
        <ele>794</ele>
        <time>2010-11-28T14:09:04Z</time>
      </trkpt>
      <trkpt lat="43.80686" lon="7.25108">
        <ele>794</ele>
        <time>2010-11-28T14:09:06Z</time>
      </trkpt>
      <trkpt lat="43.80673" lon="7.25109">
        <ele>794</ele>
        <time>2010-11-28T14:09:09Z</time>
      </trkpt>
      <trkpt lat="43.80661" lon="7.25109">
        <ele>794</ele>
        <time>2010-11-28T14:09:11Z</time>
      </trkpt>
      <trkpt lat="43.80652" lon="7.25109">
        <ele>793</ele>
        <time>2010-11-28T14:09:14Z</time>
      </trkpt>
      <trkpt lat="43.80643" lon="7.25111">
        <ele>794</ele>
        <time>2010-11-28T14:09:18Z</time>
      </trkpt>
      <trkpt lat="43.80634" lon="7.25115">
        <ele>794</ele>
        <time>2010-11-28T14:09:24Z</time>
      </trkpt>
      <trkpt lat="43.80624" lon="7.25119">
        <ele>794</ele>
        <time>2010-11-28T14:09:27Z</time>
      </trkpt>
      <trkpt lat="43.80614" lon="7.25121">
        <ele>794</ele>
        <time>2010-11-28T14:09:29Z</time>
      </trkpt>
      <trkpt lat="43.80604" lon="7.25124">
        <ele>795</ele>
        <time>2010-11-28T14:09:31Z</time>
      </trkpt>
      <trkpt lat="43.80594" lon="7.25125">
        <ele>795</ele>
        <time>2010-11-28T14:09:34Z</time>
      </trkpt>
      <trkpt lat="43.80584" lon="7.25125">
        <ele>794</ele>
        <time>2010-11-28T14:09:36Z</time>
      </trkpt>
      <trkpt lat="43.80574" lon="7.25126">
        <ele>795</ele>
        <time>2010-11-28T14:09:38Z</time>
      </trkpt>
      <trkpt lat="43.80562" lon="7.25126">
        <ele>795</ele>
        <time>2010-11-28T14:09:41Z</time>
      </trkpt>
      <trkpt lat="43.8055" lon="7.25127">
        <ele>795</ele>
        <time>2010-11-28T14:09:43Z</time>
      </trkpt>
      <trkpt lat="43.80537" lon="7.25128">
        <ele>795</ele>
        <time>2010-11-28T14:09:45Z</time>
      </trkpt>
      <trkpt lat="43.80524" lon="7.2513">
        <ele>795</ele>
        <time>2010-11-28T14:09:48Z</time>
      </trkpt>
      <trkpt lat="43.80515" lon="7.25134">
        <ele>795</ele>
        <time>2010-11-28T14:09:50Z</time>
      </trkpt>
      <trkpt lat="43.80505" lon="7.25137">
        <ele>794</ele>
        <time>2010-11-28T14:09:53Z</time>
      </trkpt>
      <trkpt lat="43.80495" lon="7.25139">
        <ele>794</ele>
        <time>2010-11-28T14:09:56Z</time>
      </trkpt>
      <trkpt lat="43.80485" lon="7.25142">
        <ele>793</ele>
        <time>2010-11-28T14:09:59Z</time>
      </trkpt>
      <trkpt lat="43.80474" lon="7.25145">
        <ele>793</ele>
        <time>2010-11-28T14:10:02Z</time>
      </trkpt>
      <trkpt lat="43.80464" lon="7.25149">
        <ele>794</ele>
        <time>2010-11-28T14:10:05Z</time>
      </trkpt>
      <trkpt lat="43.80452" lon="7.25152">
        <ele>795</ele>
        <time>2010-11-28T14:10:09Z</time>
      </trkpt>
      <trkpt lat="43.80441" lon="7.25155">
        <ele>794</ele>
        <time>2010-11-28T14:10:12Z</time>
      </trkpt>
      <trkpt lat="43.80432" lon="7.25158">
        <ele>794</ele>
        <time>2010-11-28T14:10:14Z</time>
      </trkpt>
      <trkpt lat="43.80421" lon="7.2516">
        <ele>794</ele>
        <time>2010-11-28T14:10:16Z</time>
      </trkpt>
      <trkpt lat="43.80408" lon="7.25165">
        <ele>794</ele>
        <time>2010-11-28T14:10:19Z</time>
      </trkpt>
      <trkpt lat="43.80399" lon="7.25168">
        <ele>794</ele>
        <time>2010-11-28T14:10:20Z</time>
      </trkpt>
      <trkpt lat="43.80386" lon="7.25171">
        <ele>793</ele>
        <time>2010-11-28T14:10:23Z</time>
      </trkpt>
      <trkpt lat="43.80374" lon="7.25172">
        <ele>793</ele>
        <time>2010-11-28T14:10:25Z</time>
      </trkpt>
      <trkpt lat="43.80361" lon="7.25174">
        <ele>793</ele>
        <time>2010-11-28T14:10:27Z</time>
      </trkpt>
      <trkpt lat="43.80352" lon="7.25175">
        <ele>792</ele>
        <time>2010-11-28T14:10:29Z</time>
      </trkpt>
      <trkpt lat="43.80341" lon="7.25175">
        <ele>792</ele>
        <time>2010-11-28T14:10:31Z</time>
      </trkpt>
      <trkpt lat="43.8033" lon="7.25174">
        <ele>791</ele>
        <time>2010-11-28T14:10:32Z</time>
      </trkpt>
      <trkpt lat="43.80319" lon="7.25172">
        <ele>790</ele>
        <time>2010-11-28T14:10:34Z</time>
      </trkpt>
      <trkpt lat="43.80308" lon="7.25169">
        <ele>789</ele>
        <time>2010-11-28T14:10:35Z</time>
      </trkpt>
      <trkpt lat="43.80299" lon="7.25165">
        <ele>789</ele>
        <time>2010-11-28T14:10:37Z</time>
      </trkpt>
      <trkpt lat="43.8029" lon="7.2516">
        <ele>788</ele>
        <time>2010-11-28T14:10:38Z</time>
      </trkpt>
      <trkpt lat="43.80282" lon="7.25155">
        <ele>788</ele>
        <time>2010-11-28T14:10:40Z</time>
      </trkpt>
      <trkpt lat="43.80272" lon="7.25146">
        <ele>787</ele>
        <time>2010-11-28T14:10:42Z</time>
      </trkpt>
      <trkpt lat="43.80265" lon="7.25134">
        <ele>786</ele>
        <time>2010-11-28T14:10:46Z</time>
      </trkpt>
      <trkpt lat="43.80257" lon="7.25125">
        <ele>785</ele>
        <time>2010-11-28T14:10:50Z</time>
      </trkpt>
      <trkpt lat="43.8025" lon="7.25116">
        <ele>784</ele>
        <time>2010-11-28T14:10:52Z</time>
      </trkpt>
      <trkpt lat="43.8024" lon="7.25106">
        <ele>783</ele>
        <time>2010-11-28T14:10:54Z</time>
      </trkpt>
      <trkpt lat="43.80233" lon="7.25099">
        <ele>782</ele>
        <time>2010-11-28T14:10:56Z</time>
      </trkpt>
      <trkpt lat="43.80224" lon="7.25087">
        <ele>782</ele>
        <time>2010-11-28T14:10:58Z</time>
      </trkpt>
      <trkpt lat="43.80217" lon="7.25077">
        <ele>781</ele>
        <time>2010-11-28T14:11:01Z</time>
      </trkpt>
      <trkpt lat="43.80213" lon="7.25071">
        <ele>780</ele>
        <time>2010-11-28T14:11:02Z</time>
      </trkpt>
      <trkpt lat="43.80207" lon="7.25057">
        <ele>780</ele>
        <time>2010-11-28T14:11:05Z</time>
      </trkpt>
      <trkpt lat="43.80202" lon="7.25042">
        <ele>779</ele>
        <time>2010-11-28T14:11:08Z</time>
      </trkpt>
      <trkpt lat="43.80198" lon="7.25031">
        <ele>779</ele>
        <time>2010-11-28T14:11:11Z</time>
      </trkpt>
      <trkpt lat="43.80189" lon="7.2502">
        <ele>780</ele>
        <time>2010-11-28T14:11:14Z</time>
      </trkpt>
      <trkpt lat="43.80181" lon="7.2501">
        <ele>779</ele>
        <time>2010-11-28T14:11:16Z</time>
      </trkpt>
      <trkpt lat="43.80171" lon="7.24998">
        <ele>778</ele>
        <time>2010-11-28T14:11:18Z</time>
      </trkpt>
      <trkpt lat="43.80164" lon="7.24989">
        <ele>777</ele>
        <time>2010-11-28T14:11:21Z</time>
      </trkpt>
      <trkpt lat="43.80152" lon="7.24983">
        <ele>776</ele>
        <time>2010-11-28T14:11:24Z</time>
      </trkpt>
      <trkpt lat="43.8014" lon="7.24984">
        <ele>776</ele>
        <time>2010-11-28T14:11:26Z</time>
      </trkpt>
      <trkpt lat="43.8013" lon="7.24981">
        <ele>775</ele>
        <time>2010-11-28T14:11:29Z</time>
      </trkpt>
      <trkpt lat="43.80122" lon="7.24972">
        <ele>773</ele>
        <time>2010-11-28T14:11:32Z</time>
      </trkpt>
      <trkpt lat="43.80115" lon="7.2496">
        <ele>772</ele>
        <time>2010-11-28T14:11:35Z</time>
      </trkpt>
      <trkpt lat="43.80109" lon="7.24949">
        <ele>771</ele>
        <time>2010-11-28T14:11:37Z</time>
      </trkpt>
      <trkpt lat="43.80103" lon="7.24938">
        <ele>770</ele>
        <time>2010-11-28T14:11:39Z</time>
      </trkpt>
      <trkpt lat="43.80097" lon="7.24928">
        <ele>770</ele>
        <time>2010-11-28T14:11:42Z</time>
      </trkpt>
      <trkpt lat="43.8009" lon="7.24919">
        <ele>769</ele>
        <time>2010-11-28T14:11:44Z</time>
      </trkpt>
      <trkpt lat="43.80083" lon="7.24906">
        <ele>768</ele>
        <time>2010-11-28T14:11:47Z</time>
      </trkpt>
      <trkpt lat="43.8008" lon="7.24894">
        <ele>768</ele>
        <time>2010-11-28T14:11:49Z</time>
      </trkpt>
      <trkpt lat="43.80075" lon="7.24883">
        <ele>768</ele>
        <time>2010-11-28T14:11:51Z</time>
      </trkpt>
      <trkpt lat="43.80071" lon="7.24869">
        <ele>767</ele>
        <time>2010-11-28T14:11:52Z</time>
      </trkpt>
      <trkpt lat="43.80069" lon="7.24856">
        <ele>766</ele>
        <time>2010-11-28T14:11:54Z</time>
      </trkpt>
      <trkpt lat="43.80069" lon="7.24841">
        <ele>766</ele>
        <time>2010-11-28T14:11:56Z</time>
      </trkpt>
      <trkpt lat="43.80071" lon="7.24828">
        <ele>764</ele>
        <time>2010-11-28T14:11:58Z</time>
      </trkpt>
      <trkpt lat="43.80072" lon="7.24815">
        <ele>764</ele>
        <time>2010-11-28T14:12:01Z</time>
      </trkpt>
      <trkpt lat="43.8007" lon="7.24801">
        <ele>762</ele>
        <time>2010-11-28T14:12:04Z</time>
      </trkpt>
      <trkpt lat="43.80068" lon="7.24789">
        <ele>762</ele>
        <time>2010-11-28T14:12:07Z</time>
      </trkpt>
      <trkpt lat="43.80066" lon="7.24773">
        <ele>761</ele>
        <time>2010-11-28T14:12:10Z</time>
      </trkpt>
      <trkpt lat="43.80063" lon="7.2476">
        <ele>760</ele>
        <time>2010-11-28T14:12:14Z</time>
      </trkpt>
      <trkpt lat="43.8006" lon="7.24746">
        <ele>759</ele>
        <time>2010-11-28T14:12:17Z</time>
      </trkpt>
      <trkpt lat="43.80057" lon="7.24733">
        <ele>758</ele>
        <time>2010-11-28T14:12:20Z</time>
      </trkpt>
      <trkpt lat="43.80053" lon="7.24719">
        <ele>758</ele>
        <time>2010-11-28T14:12:22Z</time>
      </trkpt>
      <trkpt lat="43.80048" lon="7.24706">
        <ele>757</ele>
        <time>2010-11-28T14:12:24Z</time>
      </trkpt>
      <trkpt lat="43.80043" lon="7.24696">
        <ele>756</ele>
        <time>2010-11-28T14:12:27Z</time>
      </trkpt>
      <trkpt lat="43.8004" lon="7.24682">
        <ele>755</ele>
        <time>2010-11-28T14:12:31Z</time>
      </trkpt>
      <trkpt lat="43.80032" lon="7.24675">
        <ele>752</ele>
        <time>2010-11-28T14:12:38Z</time>
      </trkpt>
      <trkpt lat="43.80023" lon="7.24681">
        <ele>750</ele>
        <time>2010-11-28T14:12:46Z</time>
      </trkpt>
      <trkpt lat="43.80014" lon="7.24678">
        <ele>749</ele>
        <time>2010-11-28T14:12:54Z</time>
      </trkpt>
      <trkpt lat="43.80005" lon="7.24679">
        <ele>745</ele>
        <time>2010-11-28T14:13:08Z</time>
      </trkpt>
      <trkpt lat="43.79997" lon="7.24683">
        <ele>743</ele>
        <time>2010-11-28T14:13:17Z</time>
      </trkpt>
      <trkpt lat="43.79988" lon="7.24686">
        <ele>742</ele>
        <time>2010-11-28T14:13:25Z</time>
      </trkpt>
      <trkpt lat="43.79979" lon="7.24685">
        <ele>742</ele>
        <time>2010-11-28T14:13:31Z</time>
      </trkpt>
      <trkpt lat="43.79978" lon="7.24685">
        <ele>741</ele>
        <time>2010-11-28T14:13:32Z</time>
      </trkpt>
      <trkpt lat="43.79969" lon="7.24686">
        <ele>741</ele>
        <time>2010-11-28T14:13:38Z</time>
      </trkpt>
      <trkpt lat="43.7996" lon="7.24687">
        <ele>741</ele>
        <time>2010-11-28T14:13:43Z</time>
      </trkpt>
      <trkpt lat="43.79955" lon="7.24689">
        <ele>740</ele>
        <time>2010-11-28T14:13:46Z</time>
      </trkpt>
      <trkpt lat="43.79945" lon="7.24692">
        <ele>741</ele>
        <time>2010-11-28T14:13:53Z</time>
      </trkpt>
      <trkpt lat="43.79936" lon="7.24697">
        <ele>741</ele>
        <time>2010-11-28T14:14:01Z</time>
      </trkpt>
      <trkpt lat="43.7993" lon="7.24699">
        <ele>741</ele>
        <time>2010-11-28T14:14:05Z</time>
      </trkpt>
      <trkpt lat="43.79921" lon="7.24702">
        <ele>741</ele>
        <time>2010-11-28T14:14:13Z</time>
      </trkpt>
      <trkpt lat="43.79912" lon="7.24705">
        <ele>740</ele>
        <time>2010-11-28T14:14:21Z</time>
      </trkpt>
      <trkpt lat="43.79903" lon="7.24708">
        <ele>741</ele>
        <time>2010-11-28T14:14:29Z</time>
      </trkpt>
      <trkpt lat="43.79893" lon="7.24711">
        <ele>742</ele>
        <time>2010-11-28T14:14:36Z</time>
      </trkpt>
      <trkpt lat="43.79884" lon="7.24714">
        <ele>743</ele>
        <time>2010-11-28T14:14:45Z</time>
      </trkpt>
      <trkpt lat="43.79875" lon="7.24715">
        <ele>744</ele>
        <time>2010-11-28T14:14:54Z</time>
      </trkpt>
      <trkpt lat="43.79866" lon="7.24718">
        <ele>744</ele>
        <time>2010-11-28T14:15:03Z</time>
      </trkpt>
      <trkpt lat="43.79861" lon="7.24721">
        <ele>744</ele>
        <time>2010-11-28T14:15:08Z</time>
      </trkpt>
      <trkpt lat="43.79852" lon="7.24728">
        <ele>746</ele>
        <time>2010-11-28T14:15:16Z</time>
      </trkpt>
      <trkpt lat="43.79844" lon="7.24734">
        <ele>747</ele>
        <time>2010-11-28T14:15:24Z</time>
      </trkpt>
      <trkpt lat="43.79836" lon="7.24741">
        <ele>748</ele>
        <time>2010-11-28T14:15:32Z</time>
      </trkpt>
      <trkpt lat="43.79828" lon="7.24748">
        <ele>750</ele>
        <time>2010-11-28T14:15:39Z</time>
      </trkpt>
      <trkpt lat="43.79827" lon="7.24749">
        <ele>750</ele>
        <time>2010-11-28T14:15:40Z</time>
      </trkpt>
      <trkpt lat="43.79819" lon="7.24756">
        <ele>751</ele>
        <time>2010-11-28T14:15:49Z</time>
      </trkpt>
      <trkpt lat="43.7981" lon="7.24757">
        <ele>751</ele>
        <time>2010-11-28T14:16:04Z</time>
      </trkpt>
      <trkpt lat="43.79801" lon="7.24763">
        <ele>753</ele>
        <time>2010-11-28T14:16:10Z</time>
      </trkpt>
      <trkpt lat="43.79791" lon="7.2477">
        <ele>754</ele>
        <time>2010-11-28T14:16:14Z</time>
      </trkpt>
      <trkpt lat="43.79782" lon="7.24777">
        <ele>754</ele>
        <time>2010-11-28T14:16:17Z</time>
      </trkpt>
      <trkpt lat="43.79772" lon="7.24783">
        <ele>754</ele>
        <time>2010-11-28T14:16:20Z</time>
      </trkpt>
      <trkpt lat="43.7976" lon="7.24788">
        <ele>754</ele>
        <time>2010-11-28T14:16:24Z</time>
      </trkpt>
      <trkpt lat="43.79747" lon="7.24794">
        <ele>755</ele>
        <time>2010-11-28T14:16:26Z</time>
      </trkpt>
      <trkpt lat="43.79738" lon="7.24798">
        <ele>755</ele>
        <time>2010-11-28T14:16:27Z</time>
      </trkpt>
      <trkpt lat="43.79728" lon="7.24804">
        <ele>755</ele>
        <time>2010-11-28T14:16:29Z</time>
      </trkpt>
      <trkpt lat="43.79719" lon="7.24811">
        <ele>755</ele>
        <time>2010-11-28T14:16:31Z</time>
      </trkpt>
      <trkpt lat="43.7971" lon="7.2482">
        <ele>755</ele>
        <time>2010-11-28T14:16:32Z</time>
      </trkpt>
      <trkpt lat="43.79701" lon="7.2483">
        <ele>755</ele>
        <time>2010-11-28T14:16:34Z</time>
      </trkpt>
      <trkpt lat="43.79693" lon="7.2484">
        <ele>755</ele>
        <time>2010-11-28T14:16:35Z</time>
      </trkpt>
      <trkpt lat="43.79685" lon="7.2485">
        <ele>755</ele>
        <time>2010-11-28T14:16:37Z</time>
      </trkpt>
      <trkpt lat="43.79678" lon="7.24859">
        <ele>755</ele>
        <time>2010-11-28T14:16:38Z</time>
      </trkpt>
      <trkpt lat="43.7967" lon="7.24867">
        <ele>755</ele>
        <time>2010-11-28T14:16:40Z</time>
      </trkpt>
      <trkpt lat="43.79659" lon="7.24878">
        <ele>755</ele>
        <time>2010-11-28T14:16:42Z</time>
      </trkpt>
      <trkpt lat="43.7965" lon="7.24887">
        <ele>755</ele>
        <time>2010-11-28T14:16:44Z</time>
      </trkpt>
      <trkpt lat="43.79641" lon="7.24895">
        <ele>755</ele>
        <time>2010-11-28T14:16:45Z</time>
      </trkpt>
      <trkpt lat="43.79632" lon="7.24901">
        <ele>754</ele>
        <time>2010-11-28T14:16:47Z</time>
      </trkpt>
      <trkpt lat="43.79622" lon="7.24903">
        <ele>754</ele>
        <time>2010-11-28T14:16:49Z</time>
      </trkpt>
      <trkpt lat="43.79611" lon="7.24904">
        <ele>754</ele>
        <time>2010-11-28T14:16:50Z</time>
      </trkpt>
      <trkpt lat="43.79599" lon="7.24906">
        <ele>753</ele>
        <time>2010-11-28T14:16:52Z</time>
      </trkpt>
      <trkpt lat="43.79586" lon="7.24906">
        <ele>753</ele>
        <time>2010-11-28T14:16:53Z</time>
      </trkpt>
      <trkpt lat="43.79572" lon="7.24907">
        <ele>753</ele>
        <time>2010-11-28T14:16:55Z</time>
      </trkpt>
      <trkpt lat="43.79558" lon="7.24906">
        <ele>753</ele>
        <time>2010-11-28T14:16:56Z</time>
      </trkpt>
      <trkpt lat="43.79545" lon="7.24905">
        <ele>752</ele>
        <time>2010-11-28T14:16:58Z</time>
      </trkpt>
      <trkpt lat="43.79531" lon="7.24904">
        <ele>752</ele>
        <time>2010-11-28T14:16:59Z</time>
      </trkpt>
      <trkpt lat="43.79519" lon="7.24902">
        <ele>752</ele>
        <time>2010-11-28T14:17:01Z</time>
      </trkpt>
      <trkpt lat="43.79506" lon="7.249">
        <ele>752</ele>
        <time>2010-11-28T14:17:03Z</time>
      </trkpt>
      <trkpt lat="43.79493" lon="7.24897">
        <ele>751</ele>
        <time>2010-11-28T14:17:04Z</time>
      </trkpt>
      <trkpt lat="43.7948" lon="7.24892">
        <ele>751</ele>
        <time>2010-11-28T14:17:06Z</time>
      </trkpt>
      <trkpt lat="43.79468" lon="7.24887">
        <ele>751</ele>
        <time>2010-11-28T14:17:07Z</time>
      </trkpt>
      <trkpt lat="43.79455" lon="7.24882">
        <ele>750</ele>
        <time>2010-11-28T14:17:09Z</time>
      </trkpt>
      <trkpt lat="43.79443" lon="7.24877">
        <ele>750</ele>
        <time>2010-11-28T14:17:10Z</time>
      </trkpt>
      <trkpt lat="43.79431" lon="7.24871">
        <ele>750</ele>
        <time>2010-11-28T14:17:12Z</time>
      </trkpt>
      <trkpt lat="43.79419" lon="7.24865">
        <ele>749</ele>
        <time>2010-11-28T14:17:14Z</time>
      </trkpt>
      <trkpt lat="43.79408" lon="7.24858">
        <ele>749</ele>
        <time>2010-11-28T14:17:15Z</time>
      </trkpt>
      <trkpt lat="43.79398" lon="7.24852">
        <ele>749</ele>
        <time>2010-11-28T14:17:17Z</time>
      </trkpt>
      <trkpt lat="43.79388" lon="7.24848">
        <ele>749</ele>
        <time>2010-11-28T14:17:18Z</time>
      </trkpt>
      <trkpt lat="43.79376" lon="7.24843">
        <ele>748</ele>
        <time>2010-11-28T14:17:21Z</time>
      </trkpt>
      <trkpt lat="43.79366" lon="7.24841">
        <ele>748</ele>
        <time>2010-11-28T14:17:23Z</time>
      </trkpt>
      <trkpt lat="43.79357" lon="7.24836">
        <ele>748</ele>
        <time>2010-11-28T14:17:26Z</time>
      </trkpt>
      <trkpt lat="43.79348" lon="7.24827">
        <ele>747</ele>
        <time>2010-11-28T14:17:30Z</time>
      </trkpt>
      <trkpt lat="43.79341" lon="7.2482">
        <ele>747</ele>
        <time>2010-11-28T14:17:33Z</time>
      </trkpt>
      <trkpt lat="43.79334" lon="7.2481">
        <ele>746</ele>
        <time>2010-11-28T14:17:36Z</time>
      </trkpt>
      <trkpt lat="43.79329" lon="7.248">
        <ele>745</ele>
        <time>2010-11-28T14:17:39Z</time>
      </trkpt>
      <trkpt lat="43.79326" lon="7.24784">
        <ele>745</ele>
        <time>2010-11-28T14:17:43Z</time>
      </trkpt>
      <trkpt lat="43.79324" lon="7.24769">
        <ele>745</ele>
        <time>2010-11-28T14:17:46Z</time>
      </trkpt>
      <trkpt lat="43.79322" lon="7.24754">
        <ele>745</ele>
        <time>2010-11-28T14:17:48Z</time>
      </trkpt>
      <trkpt lat="43.79323" lon="7.24738">
        <ele>744</ele>
        <time>2010-11-28T14:17:50Z</time>
      </trkpt>
      <trkpt lat="43.79325" lon="7.24726">
        <ele>744</ele>
        <time>2010-11-28T14:17:53Z</time>
      </trkpt>
      <trkpt lat="43.79325" lon="7.24723">
        <ele>744</ele>
        <time>2010-11-28T14:18:42Z</time>
      </trkpt>
      <trkpt lat="43.79325" lon="7.24723">
        <ele>744</ele>
        <time>2010-11-28T14:18:42Z</time>
      </trkpt>
      <trkpt lat="43.79325" lon="7.24723">
        <ele>744</ele>
        <time>2010-11-28T14:18:51Z</time>
      </trkpt>
      <trkpt lat="43.79325" lon="7.24723">
        <ele>744</ele>
        <time>2010-11-28T14:18:54Z</time>
      </trkpt>
      <trkpt lat="43.79329" lon="7.2471">
        <ele>733</ele>
        <time>2010-11-28T14:19:12Z</time>
      </trkpt>
      <trkpt lat="43.7933" lon="7.24705">
        <ele>732</ele>
        <time>2010-11-28T14:19:14Z</time>
      </trkpt>
      <trkpt lat="43.79333" lon="7.24692">
        <ele>732</ele>
        <time>2010-11-28T14:19:17Z</time>
      </trkpt>
      <trkpt lat="43.79335" lon="7.24679">
        <ele>732</ele>
        <time>2010-11-28T14:19:19Z</time>
      </trkpt>
      <trkpt lat="43.79339" lon="7.24663">
        <ele>732</ele>
        <time>2010-11-28T14:19:21Z</time>
      </trkpt>
      <trkpt lat="43.79343" lon="7.24647">
        <ele>732</ele>
        <time>2010-11-28T14:19:23Z</time>
      </trkpt>
      <trkpt lat="43.79349" lon="7.2463">
        <ele>731</ele>
        <time>2010-11-28T14:19:26Z</time>
      </trkpt>
      <trkpt lat="43.79353" lon="7.24618">
        <ele>731</ele>
        <time>2010-11-28T14:19:27Z</time>
      </trkpt>
      <trkpt lat="43.79356" lon="7.24607">
        <ele>731</ele>
        <time>2010-11-28T14:19:29Z</time>
      </trkpt>
      <trkpt lat="43.7936" lon="7.24595">
        <ele>731</ele>
        <time>2010-11-28T14:19:30Z</time>
      </trkpt>
      <trkpt lat="43.79365" lon="7.24583">
        <ele>730</ele>
        <time>2010-11-28T14:19:32Z</time>
      </trkpt>
      <trkpt lat="43.7937" lon="7.2457">
        <ele>730</ele>
        <time>2010-11-28T14:19:33Z</time>
      </trkpt>
      <trkpt lat="43.79376" lon="7.24558">
        <ele>730</ele>
        <time>2010-11-28T14:19:35Z</time>
      </trkpt>
      <trkpt lat="43.79383" lon="7.24545">
        <ele>730</ele>
        <time>2010-11-28T14:19:37Z</time>
      </trkpt>
      <trkpt lat="43.79391" lon="7.24533">
        <ele>729</ele>
        <time>2010-11-28T14:19:38Z</time>
      </trkpt>
      <trkpt lat="43.794" lon="7.24521">
        <ele>729</ele>
        <time>2010-11-28T14:19:40Z</time>
      </trkpt>
      <trkpt lat="43.79409" lon="7.2451">
        <ele>729</ele>
        <time>2010-11-28T14:19:41Z</time>
      </trkpt>
      <trkpt lat="43.79418" lon="7.24498">
        <ele>728</ele>
        <time>2010-11-28T14:19:43Z</time>
      </trkpt>
      <trkpt lat="43.79427" lon="7.24487">
        <ele>727</ele>
        <time>2010-11-28T14:19:44Z</time>
      </trkpt>
      <trkpt lat="43.79437" lon="7.24476">
        <ele>727</ele>
        <time>2010-11-28T14:19:46Z</time>
      </trkpt>
      <trkpt lat="43.79447" lon="7.24466">
        <ele>726</ele>
        <time>2010-11-28T14:19:47Z</time>
      </trkpt>
      <trkpt lat="43.79456" lon="7.24456">
        <ele>726</ele>
        <time>2010-11-28T14:19:49Z</time>
      </trkpt>
      <trkpt lat="43.79466" lon="7.24445">
        <ele>725</ele>
        <time>2010-11-28T14:19:50Z</time>
      </trkpt>
      <trkpt lat="43.79474" lon="7.24433">
        <ele>725</ele>
        <time>2010-11-28T14:19:52Z</time>
      </trkpt>
      <trkpt lat="43.79482" lon="7.24421">
        <ele>725</ele>
        <time>2010-11-28T14:19:54Z</time>
      </trkpt>
      <trkpt lat="43.79489" lon="7.24408">
        <ele>725</ele>
        <time>2010-11-28T14:19:55Z</time>
      </trkpt>
      <trkpt lat="43.79496" lon="7.24396">
        <ele>725</ele>
        <time>2010-11-28T14:19:57Z</time>
      </trkpt>
      <trkpt lat="43.79503" lon="7.24384">
        <ele>724</ele>
        <time>2010-11-28T14:19:58Z</time>
      </trkpt>
      <trkpt lat="43.79511" lon="7.24372">
        <ele>723</ele>
        <time>2010-11-28T14:20:00Z</time>
      </trkpt>
      <trkpt lat="43.79518" lon="7.2436">
        <ele>723</ele>
        <time>2010-11-28T14:20:01Z</time>
      </trkpt>
      <trkpt lat="43.79525" lon="7.24348">
        <ele>722</ele>
        <time>2010-11-28T14:20:03Z</time>
      </trkpt>
      <trkpt lat="43.79532" lon="7.24335">
        <ele>722</ele>
        <time>2010-11-28T14:20:04Z</time>
      </trkpt>
      <trkpt lat="43.79539" lon="7.24322">
        <ele>721</ele>
        <time>2010-11-28T14:20:06Z</time>
      </trkpt>
      <trkpt lat="43.79546" lon="7.24308">
        <ele>721</ele>
        <time>2010-11-28T14:20:07Z</time>
      </trkpt>
      <trkpt lat="43.79552" lon="7.24295">
        <ele>721</ele>
        <time>2010-11-28T14:20:09Z</time>
      </trkpt>
      <trkpt lat="43.79557" lon="7.24282">
        <ele>720</ele>
        <time>2010-11-28T14:20:11Z</time>
      </trkpt>
      <trkpt lat="43.79563" lon="7.24269">
        <ele>720</ele>
        <time>2010-11-28T14:20:12Z</time>
      </trkpt>
      <trkpt lat="43.79567" lon="7.24255">
        <ele>720</ele>
        <time>2010-11-28T14:20:14Z</time>
      </trkpt>
      <trkpt lat="43.7957" lon="7.24241">
        <ele>720</ele>
        <time>2010-11-28T14:20:15Z</time>
      </trkpt>
      <trkpt lat="43.79571" lon="7.24226">
        <ele>719</ele>
        <time>2010-11-28T14:20:17Z</time>
      </trkpt>
      <trkpt lat="43.79573" lon="7.24211">
        <ele>719</ele>
        <time>2010-11-28T14:20:18Z</time>
      </trkpt>
      <trkpt lat="43.79574" lon="7.24197">
        <ele>719</ele>
        <time>2010-11-28T14:20:20Z</time>
      </trkpt>
      <trkpt lat="43.79576" lon="7.24183">
        <ele>718</ele>
        <time>2010-11-28T14:20:22Z</time>
      </trkpt>
      <trkpt lat="43.79578" lon="7.24171">
        <ele>718</ele>
        <time>2010-11-28T14:20:23Z</time>
      </trkpt>
      <trkpt lat="43.79582" lon="7.24157">
        <ele>716</ele>
        <time>2010-11-28T14:20:26Z</time>
      </trkpt>
      <trkpt lat="43.79572" lon="7.24163">
        <ele>714</ele>
        <time>2010-11-28T14:20:31Z</time>
      </trkpt>
      <trkpt lat="43.79567" lon="7.24179">
        <ele>713</ele>
        <time>2010-11-28T14:20:33Z</time>
      </trkpt>
      <trkpt lat="43.79562" lon="7.24195">
        <ele>712</ele>
        <time>2010-11-28T14:20:36Z</time>
      </trkpt>
      <trkpt lat="43.79558" lon="7.24211">
        <ele>711</ele>
        <time>2010-11-28T14:20:38Z</time>
      </trkpt>
      <trkpt lat="43.79553" lon="7.24227">
        <ele>710</ele>
        <time>2010-11-28T14:20:40Z</time>
      </trkpt>
      <trkpt lat="43.79547" lon="7.24243">
        <ele>709</ele>
        <time>2010-11-28T14:20:42Z</time>
      </trkpt>
      <trkpt lat="43.7954" lon="7.24258">
        <ele>708</ele>
        <time>2010-11-28T14:20:45Z</time>
      </trkpt>
      <trkpt lat="43.79532" lon="7.24272">
        <ele>707</ele>
        <time>2010-11-28T14:20:47Z</time>
      </trkpt>
      <trkpt lat="43.79525" lon="7.24281">
        <ele>706</ele>
        <time>2010-11-28T14:20:48Z</time>
      </trkpt>
      <trkpt lat="43.79518" lon="7.2429">
        <ele>706</ele>
        <time>2010-11-28T14:20:50Z</time>
      </trkpt>
      <trkpt lat="43.7951" lon="7.243">
        <ele>705</ele>
        <time>2010-11-28T14:20:51Z</time>
      </trkpt>
      <trkpt lat="43.79501" lon="7.2431">
        <ele>705</ele>
        <time>2010-11-28T14:20:53Z</time>
      </trkpt>
      <trkpt lat="43.79492" lon="7.24321">
        <ele>705</ele>
        <time>2010-11-28T14:20:54Z</time>
      </trkpt>
      <trkpt lat="43.79483" lon="7.24331">
        <ele>705</ele>
        <time>2010-11-28T14:20:56Z</time>
      </trkpt>
      <trkpt lat="43.79473" lon="7.24342">
        <ele>705</ele>
        <time>2010-11-28T14:20:58Z</time>
      </trkpt>
      <trkpt lat="43.79464" lon="7.24351">
        <ele>705</ele>
        <time>2010-11-28T14:20:59Z</time>
      </trkpt>
      <trkpt lat="43.79455" lon="7.2436">
        <ele>704</ele>
        <time>2010-11-28T14:21:01Z</time>
      </trkpt>
      <trkpt lat="43.79446" lon="7.24368">
        <ele>702</ele>
        <time>2010-11-28T14:21:02Z</time>
      </trkpt>
      <trkpt lat="43.79437" lon="7.24376">
        <ele>702</ele>
        <time>2010-11-28T14:21:04Z</time>
      </trkpt>
      <trkpt lat="43.79432" lon="7.24381">
        <ele>701</ele>
        <time>2010-11-28T14:21:04Z</time>
      </trkpt>
      <trkpt lat="43.79423" lon="7.2439">
        <ele>700</ele>
        <time>2010-11-28T14:21:06Z</time>
      </trkpt>
      <trkpt lat="43.79413" lon="7.24398">
        <ele>699</ele>
        <time>2010-11-28T14:21:07Z</time>
      </trkpt>
      <trkpt lat="43.79404" lon="7.24406">
        <ele>698</ele>
        <time>2010-11-28T14:21:09Z</time>
      </trkpt>
      <trkpt lat="43.79394" lon="7.24413">
        <ele>696</ele>
        <time>2010-11-28T14:21:10Z</time>
      </trkpt>
      <trkpt lat="43.79384" lon="7.24421">
        <ele>696</ele>
        <time>2010-11-28T14:21:12Z</time>
      </trkpt>
      <trkpt lat="43.79379" lon="7.24424">
        <ele>695</ele>
        <time>2010-11-28T14:21:13Z</time>
      </trkpt>
      <trkpt lat="43.79369" lon="7.24431">
        <ele>694</ele>
        <time>2010-11-28T14:21:14Z</time>
      </trkpt>
      <trkpt lat="43.79359" lon="7.24437">
        <ele>694</ele>
        <time>2010-11-28T14:21:16Z</time>
      </trkpt>
      <trkpt lat="43.79349" lon="7.24444">
        <ele>693</ele>
        <time>2010-11-28T14:21:17Z</time>
      </trkpt>
      <trkpt lat="43.7934" lon="7.24452">
        <ele>692</ele>
        <time>2010-11-28T14:21:19Z</time>
      </trkpt>
      <trkpt lat="43.79331" lon="7.24457">
        <ele>691</ele>
        <time>2010-11-28T14:21:20Z</time>
      </trkpt>
      <trkpt lat="43.79324" lon="7.24463">
        <ele>689</ele>
        <time>2010-11-28T14:21:30Z</time>
      </trkpt>
    </trkseg>
  </trk>
</gpx>